Observation data for Fort Lancaster on 02/14/2017      Previous  Date  Next       Current Mesonet Observations  Soil Data  Daily Summary Page  Observations in Plain Language
KLA1 140600Z 31008KT 05/05 A3002 RMK A01 T00500046  RH  097%=      5-min Rain = 0
KLA1 140601Z 31007KT 05/05 A3002 RMK A01 T00500046  RH  097%=      5-min Rain = 0
KLA1 140602Z 32008KT 05/05 A3002 RMK A01 T00500046  RH  097%=      5-min Rain = 0
KLA1 140603Z 32008KT 05/05 A3002 RMK A01 T00510047  RH  097%=      5-min Rain = 0
KLA1 140604Z 32008KT 05/05 A3002 RMK A01 T00510047  RH  097%=      5-min Rain = 0
KLA1 140605Z 32007KT 05/05 A3002 RMK A01 T00510047  RH  097%=      5-min Rain = 0.01
KLA1 140606Z 32006KT 05/05 A3002 RMK A01 T00510047  RH  097%=      5-min Rain = 0
KLA1 140607Z 31006KT 05/05 A3002 RMK A01 T00510047  RH  097%=      5-min Rain = 0
KLA1 140608Z 31007KT 05/05 A3002 RMK A01 T00510047  RH  097%=      5-min Rain = 0
KLA1 140609Z 31008KT 05/05 A3003 RMK A01 T00510047  RH  097%=      5-min Rain = 0
KLA1 140610Z 30008KT 05/05 A3003 RMK A01 T00510047  RH  097%=      5-min Rain = 0
KLA1 140611Z 30008KT 05/05 A3003 RMK A01 T00510047  RH  097%=      5-min Rain = 0
KLA1 140612Z 30008KT 05/05 A3003 RMK A01 T00520047  RH  097%=      5-min Rain = 0
KLA1 140613Z 30006KT 05/05 A3003 RMK A01 T00520047  RH  097%=      5-min Rain = 0
KLA1 140614Z 30008KT 05/05 A3003 RMK A01 T00520047  RH  097%=      5-min Rain = 0
KLA1 140615Z 30007KT 05/05 A3003 RMK A01 T00520047  RH  097%=      5-min Rain = 0
KLA1 140616Z 30007KT 05/05 A3003 RMK A01 T00520047  RH  097%=      5-min Rain = 0
KLA1 140617Z 30006KT 05/05 A3003 RMK A01 T00520048  RH  097%=      5-min Rain = 0
KLA1 140618Z 31008KT 05/05 A3003 RMK A01 T00520047  RH  097%=      5-min Rain = 0
KLA1 140619Z 31008KT 05/05 A3003 RMK A01 T00520048  RH  097%=      5-min Rain = 0
KLA1 140620Z 31007KT 05/05 A3003 RMK A01 T00520048  RH  097%=      5-min Rain = 0
KLA1 140621Z 31006KT 05/05 A3003 RMK A01 T00520047  RH  097%=      5-min Rain = 0
KLA1 140622Z 31007KT 05/05 A3003 RMK A01 T00520047  RH  097%=      5-min Rain = 0.01
KLA1 140623Z 32006KT 05/05 A3003 RMK A01 T00520047  RH  097%=      5-min Rain = 0
KLA1 140624Z 32007KT 05/05 A3003 RMK A01 T00520047  RH  097%=      5-min Rain = 0
KLA1 140625Z 32006KT 05/05 A3002 RMK A01 T00530048  RH  097%=      5-min Rain = 0
KLA1 140626Z 33006KT 05/05 A3002 RMK A01 T00530047  RH  096%=      5-min Rain = 0
KLA1 140627Z 33004KT 05/05 A3002 RMK A01 T00530047  RH  096%=      5-min Rain = 0
KLA1 140628Z 33007KT 05/05 A3002 RMK A01 T00530047  RH  096%=      5-min Rain = 0
KLA1 140629Z 33006KT 05/05 A3002 RMK A01 T00530047  RH  096%=      5-min Rain = 0
KLA1 140630Z 34006KT 05/05 A3002 RMK A01 T00530047  RH  096%=      5-min Rain = 0
KLA1 140631Z 33006KT 05/05 A3003 RMK A01 T00530047  RH  096%=      5-min Rain = 0
KLA1 140632Z 33006KT 05/05 A3003 RMK A01 T00530047  RH  096%=      5-min Rain = 0
KLA1 140633Z 35005KT 05/05 A3003 RMK A01 T00530047  RH  096%=      5-min Rain = 0
KLA1 140634Z 34006KT 05/05 A3002 RMK A01 T00540047  RH  096%=      5-min Rain = 0.01
KLA1 140635Z 36007KT 05/05 A3002 RMK A01 T00530047  RH  095%=      5-min Rain = 0
KLA1 140636Z 35007KT 05/05 A3002 RMK A01 T00540047  RH  095%=      5-min Rain = 0
KLA1 140637Z 35006KT 05/05 A3002 RMK A01 T00540047  RH  095%=      5-min Rain = 0.01
KLA1 140638Z 35004KT 05/05 A3002 RMK A01 T00540047  RH  095%=      5-min Rain = 0
KLA1 140639Z 34003KT 05/05 A3002 RMK A01 T00540047  RH  095%=      5-min Rain = 0
KLA1 140640Z 33003KT 05/05 A3002 RMK A01 T00540047  RH  095%=      5-min Rain = 0.01
KLA1 140641Z 34004KT 05/05 A3002 RMK A01 T00540047  RH  096%=      5-min Rain = 0
KLA1 140642Z 33003KT 05/05 A3002 RMK A01 T00540047  RH  096%=      5-min Rain = 0
KLA1 140643Z 34003KT 05/05 A3002 RMK A01 T00540047  RH  096%=      5-min Rain = 0.01
KLA1 140644Z 35005KT 05/05 A3002 RMK A01 T00540047  RH  096%=      5-min Rain = 0
KLA1 140645Z 34004KT 05/05 A3002 RMK A01 T00540047  RH  096%=      5-min Rain = 0
KLA1 140646Z 35006KT 05/05 A3002 RMK A01 T00540048  RH  096%=      5-min Rain = 0
KLA1 140647Z 34005KT 05/05 A3002 RMK A01 T00540047  RH  095%=      5-min Rain = 0.01
KLA1 140648Z 33005KT 05/05 A3002 RMK A01 T00540047  RH  095%=      5-min Rain = 0
KLA1 140649Z 33003KT 05/05 A3003 RMK A01 T00540047  RH  095%=      5-min Rain = 0
KLA1 140650Z 32006KT 05/05 A3003 RMK A01 T00540047  RH  095%=      5-min Rain = 0
KLA1 140651Z 32004KT 05/05 A3003 RMK A01 T00540047  RH  095%=      5-min Rain = 0
KLA1 140652Z 31003KT 05/05 A3004 RMK A01 T00540047  RH  095%=      5-min Rain = 0
KLA1 140653Z 32004KT 05/05 A3004 RMK A01 T00540047  RH  095%=      5-min Rain = 0.01
KLA1 140654Z 31004KT 06/05 A3004 RMK A01 T00550048  RH  095%=      5-min Rain = 0
KLA1 140655Z 32003KT 05/05 A3004 RMK A01 T00540048  RH  095%=      5-min Rain = 0
KLA1 140656Z 31005KT 06/05 A3004 RMK A01 T00550048  RH  096%=      5-min Rain = 0
KLA1 140657Z 31004KT 06/05 A3005 RMK A01 T00550048  RH  096%=      5-min Rain = 0
KLA1 140658Z 31005KT 06/05 A3005 RMK A01 T00550048  RH  096%=      5-min Rain = 0
KLA1 140659Z 32005KT 06/05 A3005 RMK A01 T00550049  RH  096%=      5-min Rain = 0.01
KLA1 140700Z 33003KT 06/05 A3005 RMK A01 T00550049  RH  096%=      5-min Rain = 0
KLA1 140701Z 32004KT 06/05 A3005 RMK A01 T00550049  RH  096%=      5-min Rain = 0.01
KLA1 140702Z 33004KT 06/05 A3005 RMK A01 T00550049  RH  096%=      5-min Rain = 0
KLA1 140703Z 34004KT 06/05 A3005 RMK A01 T00550049  RH  096%=      5-min Rain = 0
KLA1 140704Z 33005KT 06/05 A3004 RMK A01 T00550049  RH  096%=      5-min Rain = 0.01
KLA1 140705Z 33004KT 06/05 A3004 RMK A01 T00550050  RH  096%=      5-min Rain = 0.01
KLA1 140706Z 33006KT 06/05 A3004 RMK A01 T00550049  RH  096%=      5-min Rain = 0
KLA1 140707Z 33006KT 06/05 A3004 RMK A01 T00550050  RH  096%=      5-min Rain = 0.01
KLA1 140708Z 32007KT 06/05 A3004 RMK A01 T00550049  RH  096%=      5-min Rain = 0.01
KLA1 140709Z 31007KT 06/05 A3005 RMK A01 T00550050  RH  096%=      5-min Rain = 0
KLA1 140710Z 30007KT 06/05 A3005 RMK A01 T00550049  RH  096%=      5-min Rain = 0.01
KLA1 140711Z 30007KT 06/05 A3005 RMK A01 T00550050  RH  096%=      5-min Rain = 0
KLA1 140712Z 29006KT 06/05 A3005 RMK A01 T00550050  RH  096%=      5-min Rain = 0.01
KLA1 140713Z 30008KT 06/05 A3005 RMK A01 T00550050  RH  097%=      5-min Rain = 0.01
KLA1 140714Z 30006KT 06/05 A3005 RMK A01 T00550051  RH  097%=      5-min Rain = 0
KLA1 140715Z 30007KT 06/05 A3005 RMK A01 T00550050  RH  097%=      5-min Rain = 0.01
KLA1 140716Z 31007KT 06/05 A3005 RMK A01 T00550051  RH  097%=      5-min Rain = 0
KLA1 140717Z 31005KT 06/05 A3004 RMK A01 T00560051  RH  097%=      5-min Rain = 0.01
KLA1 140718Z 30006KT 06/05 A3004 RMK A01 T00550051  RH  097%=      5-min Rain = 0.01
KLA1 140719Z 30006KT 06/05 A3004 RMK A01 T00550051  RH  097%=      5-min Rain = 0
KLA1 140720Z 31007KT 06/05 A3004 RMK A01 T00560051  RH  097%=      5-min Rain = 0.01
KLA1 140721Z 31006KT 06/05 A3004 RMK A01 T00550051  RH  097%=      5-min Rain = 0
KLA1 140722Z 31005KT 06/05 A3004 RMK A01 T00550051  RH  097%=      5-min Rain = 0
KLA1 140723Z 31007KT 06/05 A3004 RMK A01 T00560052  RH  097%=      5-min Rain = 0
KLA1 140724Z 33005KT 06/05 A3004 RMK A01 T00550051  RH  097%=      5-min Rain = 0.01
KLA1 140725Z 32005KT 06/05 A3004 RMK A01 T00560051  RH  097%=      5-min Rain = 0
KLA1 140726Z 32005KT 06/05 A3004 RMK A01 T00550051  RH  097%=      5-min Rain = 0
KLA1 140727Z 32007KT 06/05 A3004 RMK A01 T00560052  RH  097%=      5-min Rain = 0
KLA1 140728Z 32007KT 06/05 A3004 RMK A01 T00550051  RH  097%=      5-min Rain = 0
KLA1 140729Z 32006KT 06/05 A3004 RMK A01 T00550051  RH  097%=      5-min Rain = 0
KLA1 140730Z 33007KT 06/05 A3003 RMK A01 T00550051  RH  097%=      5-min Rain = 0
KLA1 140731Z 34008KT 06/05 A3003 RMK A01 T00550051  RH  097%=      5-min Rain = 0
KLA1 140732Z 34009G14KT 06/05 A3002 RMK A01 T00550051  RH  097%=      5-min Rain = 0
KLA1 140733Z 33008KT 06/05 A3001 RMK A01 T00560051  RH  097%=      5-min Rain = 0
KLA1 140734Z 35009KT 06/05 A3001 RMK A01 T00560051  RH  097%=      5-min Rain = 0
KLA1 140735Z 35009KT 06/05 A30 RMK A01 T00560050  RH  096%=      5-min Rain = 0
KLA1 140736Z 35010KT 06/05 A30 RMK A01 T00560050  RH  096%=      5-min Rain = 0
KLA1 140737Z 35011G17KT 06/05 A30 RMK A01 T00560050  RH  096%=      5-min Rain = 0.01
KLA1 140738Z 34012G18KT 06/05 A2999 RMK A01 T00560050  RH  096%=      5-min Rain = 0
KLA1 140739Z 35012KT 06/05 A2999 RMK A01 T00560050  RH  096%=      5-min Rain = 0
KLA1 140740Z 35012KT 06/05 A2999 RMK A01 T00570050  RH  095%=      5-min Rain = 0
KLA1 140741Z 33012KT 06/05 A2999 RMK A01 T00560049  RH  095%=      5-min Rain = 0
KLA1 140742Z 35009KT 06/05 A2998 RMK A01 T00560049  RH  095%=      5-min Rain = 0
KLA1 140743Z 34010KT 06/05 A2998 RMK A01 T00570049  RH  095%=      5-min Rain = 0
KLA1 140744Z 35012KT 06/05 A2998 RMK A01 T00570049  RH  095%=      5-min Rain = 0
KLA1 140745Z 35013G19KT 06/05 A2997 RMK A01 T00570049  RH  095%=      5-min Rain = 0
KLA1 140746Z 34014KT 06/05 A2997 RMK A01 T00570048  RH  094%=      5-min Rain = 0
KLA1 140747Z 35010KT 06/05 A2998 RMK A01 T00570048  RH  094%=      5-min Rain = 0
KLA1 140748Z 34009KT 06/05 A2998 RMK A01 T00570048  RH  094%=      5-min Rain = 0
KLA1 140749Z 35011KT 06/05 A2998 RMK A01 T00570048  RH  094%=      5-min Rain = 0
KLA1 140750Z 33009KT 06/05 A2999 RMK A01 T00570048  RH  094%=      5-min Rain = 0
KLA1 140751Z 32010KT 06/05 A2999 RMK A01 T00570047  RH  094%=      5-min Rain = 0
KLA1 140752Z 32010KT 06/05 A2999 RMK A01 T00570048  RH  094%=      5-min Rain = 0
KLA1 140753Z 33009KT 06/05 A2999 RMK A01 T00570048  RH  094%=      5-min Rain = 0
KLA1 140754Z 33009KT 06/05 A2999 RMK A01 T00570048  RH  094%=      5-min Rain = 0
KLA1 140755Z 33010KT 06/05 A2999 RMK A01 T00570048  RH  094%=      5-min Rain = 0
KLA1 140756Z 33007KT 06/05 A2999 RMK A01 T00570048  RH  094%=      5-min Rain = 0
KLA1 140757Z 32008KT 06/05 A2999 RMK A01 T00570048  RH  094%=      5-min Rain = 0
KLA1 140758Z 32009KT 06/05 A2999 RMK A01 T00570048  RH  094%=      5-min Rain = 0
KLA1 140759Z 34009KT 06/05 A2999 RMK A01 T00570048  RH  094%=      5-min Rain = 0
KLA1 140800Z 33009KT 06/05 A2998 RMK A01 T00570048  RH  094%=      5-min Rain = 0
KLA1 140801Z 33013G18KT 06/05 A2998 RMK A01 T00570048  RH  094%=      5-min Rain = 0
KLA1 140802Z 32015G20KT 06/05 A2998 RMK A01 T00570047  RH  093%=      5-min Rain = 0
KLA1 140803Z 33009G14KT 06/05 A2999 RMK A01 T00580046  RH  092%=      5-min Rain = 0
KLA1 140804Z 32009G14KT 06/05 A2999 RMK A01 T00580046  RH  092%=      5-min Rain = 0
KLA1 140805Z 33010KT 06/05 A2999 RMK A01 T00580046  RH  092%=      5-min Rain = 0
KLA1 140806Z 33012KT 06/05 A2999 RMK A01 T00580047  RH  092%=      5-min Rain = 0
KLA1 140807Z 31012KT 06/05 A30 RMK A01 T00580046  RH  092%=      5-min Rain = 0
KLA1 140808Z 31011KT 06/05 A30 RMK A01 T00590046  RH  092%=      5-min Rain = 0
KLA1 140809Z 32010KT 06/05 A30 RMK A01 T00590046  RH  091%=      5-min Rain = 0
KLA1 140810Z 32011KT 06/05 A3001 RMK A01 T00590046  RH  092%=      5-min Rain = 0
KLA1 140811Z 33008KT 06/05 A3001 RMK A01 T00590046  RH  091%=      5-min Rain = 0
KLA1 140812Z 33007KT 06/05 A3001 RMK A01 T00590046  RH  091%=      5-min Rain = 0
KLA1 140813Z 32006KT 06/05 A3001 RMK A01 T00590046  RH  091%=      5-min Rain = 0
KLA1 140814Z 31006KT 06/05 A3001 RMK A01 T00590047  RH  092%=      5-min Rain = 0
KLA1 140815Z 32006KT 06/05 A3001 RMK A01 T00590047  RH  092%=      5-min Rain = 0
KLA1 140816Z 31007KT 06/05 A3001 RMK A01 T00590048  RH  092%=      5-min Rain = 0
KLA1 140817Z 32007KT 06/05 A3001 RMK A01 T00590048  RH  093%=      5-min Rain = 0
KLA1 140818Z 31009KT 06/05 A3001 RMK A01 T00590048  RH  093%=      5-min Rain = 0
KLA1 140819Z 33008KT 06/05 A3001 RMK A01 T00590048  RH  093%=      5-min Rain = 0
KLA1 140820Z 32013KT 06/05 A3001 RMK A01 T00590047  RH  092%=      5-min Rain = 0
KLA1 140821Z 31009KT 06/05 A3001 RMK A01 T00590046  RH  092%=      5-min Rain = 0
KLA1 140822Z 31008KT 06/05 A3001 RMK A01 T00590047  RH  091%=      5-min Rain = 0
KLA1 140823Z 32009KT 06/05 A3002 RMK A01 T00600047  RH  092%=      5-min Rain = 0
KLA1 140824Z 32007KT 06/05 A3002 RMK A01 T00600047  RH  091%=      5-min Rain = 0
KLA1 140825Z 32007KT 06/05 A3002 RMK A01 T00600047  RH  091%=      5-min Rain = 0
KLA1 140826Z 31010KT 06/05 A3002 RMK A01 T00590047  RH  092%=      5-min Rain = 0
KLA1 140827Z 32008KT 06/05 A3002 RMK A01 T00600047  RH  091%=      5-min Rain = 0
KLA1 140828Z 33009KT 06/05 A3002 RMK A01 T00600047  RH  091%=      5-min Rain = 0
KLA1 140829Z 32009KT 06/05 A3002 RMK A01 T00600047  RH  091%=      5-min Rain = 0
KLA1 140830Z 32011KT 06/05 A3003 RMK A01 T00600046  RH  091%=      5-min Rain = 0
KLA1 140831Z 32009KT 06/05 A3003 RMK A01 T00610047  RH  091%=      5-min Rain = 0
KLA1 140832Z 32007KT 06/05 A3003 RMK A01 T00610046  RH  091%=      5-min Rain = 0
KLA1 140833Z 32008KT 06/05 A3003 RMK A01 T00600046  RH  091%=      5-min Rain = 0
KLA1 140834Z 32007KT 06/05 A3003 RMK A01 T00610047  RH  091%=      5-min Rain = 0
KLA1 140835Z 33008KT 06/05 A3003 RMK A01 T00600047  RH  091%=      5-min Rain = 0
KLA1 140836Z 32008KT 06/05 A3002 RMK A01 T00600046  RH  091%=      5-min Rain = 0
KLA1 140837Z 33007KT 06/05 A3002 RMK A01 T00610047  RH  091%=      5-min Rain = 0
KLA1 140838Z 33006KT 06/05 A3002 RMK A01 T00610046  RH  090%=      5-min Rain = 0
KLA1 140839Z 32007KT 06/05 A3002 RMK A01 T00610047  RH  091%=      5-min Rain = 0
KLA1 140840Z 32007KT 06/05 A3002 RMK A01 T00610047  RH  091%=      5-min Rain = 0
KLA1 140841Z 32007KT 06/05 A3002 RMK A01 T00610047  RH  091%=      5-min Rain = 0
KLA1 140842Z 33008KT 06/05 A3003 RMK A01 T00610047  RH  091%=      5-min Rain = 0
KLA1 140843Z 33007KT 06/05 A3003 RMK A01 T00610047  RH  091%=      5-min Rain = 0
KLA1 140844Z 33008KT 06/05 A3003 RMK A01 T00620047  RH  090%=      5-min Rain = 0
KLA1 140845Z 34006KT 06/05 A3003 RMK A01 T00620047  RH  090%=      5-min Rain = 0
KLA1 140846Z 33007KT 06/05 A3003 RMK A01 T00610046  RH  090%=      5-min Rain = 0
KLA1 140847Z 33009KT 06/05 A3003 RMK A01 T00610046  RH  090%=      5-min Rain = 0
KLA1 140848Z 32007KT 06/05 A3003 RMK A01 T00620047  RH  090%=      5-min Rain = 0
KLA1 140849Z 33006KT 06/05 A3002 RMK A01 T00620047  RH  090%=      5-min Rain = 0
KLA1 140850Z 34007KT 06/05 A3002 RMK A01 T00620047  RH  090%=      5-min Rain = 0
KLA1 140851Z 33007KT 06/05 A3002 RMK A01 T00620047  RH  090%=      5-min Rain = 0
KLA1 140852Z 32008KT 06/05 A3002 RMK A01 T00620047  RH  090%=      5-min Rain = 0
KLA1 140853Z 32008KT 06/05 A3003 RMK A01 T00620047  RH  090%=      5-min Rain = 0
KLA1 140854Z 32009KT 06/05 A3003 RMK A01 T00620048  RH  090%=      5-min Rain = 0
KLA1 140855Z 33008KT 06/05 A3003 RMK A01 T00620048  RH  090%=      5-min Rain = 0
KLA1 140856Z 32008KT 06/05 A3003 RMK A01 T00620048  RH  090%=      5-min Rain = 0
KLA1 140857Z 32007KT 06/05 A3003 RMK A01 T00620048  RH  090%=      5-min Rain = 0
KLA1 140858Z 32009KT 06/05 A3003 RMK A01 T00620048  RH  091%=      5-min Rain = 0
KLA1 140859Z 32009KT 06/05 A3003 RMK A01 T00620048  RH  091%=      5-min Rain = 0
KLA1 140900Z 32009KT 06/05 A3003 RMK A01 T00620048  RH  091%=      5-min Rain = 0
KLA1 140901Z 32007KT 06/05 A3003 RMK A01 T00620048  RH  091%=      5-min Rain = 0
KLA1 140902Z 32007KT 06/05 A3003 RMK A01 T00620048  RH  091%=      5-min Rain = 0
KLA1 140903Z 32006KT 06/05 A3003 RMK A01 T00620048  RH  091%=      5-min Rain = 0
KLA1 140904Z 31006KT 06/05 A3003 RMK A01 T00620049  RH  091%=      5-min Rain = 0
KLA1 140905Z 32006KT 06/05 A3003 RMK A01 T00620050  RH  092%=      5-min Rain = 0
KLA1 140906Z 31007KT 06/05 A3003 RMK A01 T00620050  RH  092%=      5-min Rain = 0
KLA1 140907Z 31007KT 06/05 A3003 RMK A01 T00620050  RH  092%=      5-min Rain = 0
KLA1 140908Z 32007KT 06/05 A3004 RMK A01 T00620050  RH  092%=      5-min Rain = 0
KLA1 140909Z 31007KT 06/05 A3004 RMK A01 T00620050  RH  092%=      5-min Rain = 0
KLA1 140910Z 31006KT 06/05 A3004 RMK A01 T00620049  RH  092%=      5-min Rain = 0
KLA1 140911Z 31008KT 06/05 A3003 RMK A01 T00620050  RH  092%=      5-min Rain = 0
KLA1 140912Z 33009KT 06/05 A3003 RMK A01 T00620050  RH  092%=      5-min Rain = 0
KLA1 140913Z 33006KT 06/05 A3003 RMK A01 T00620049  RH  092%=      5-min Rain = 0
KLA1 140914Z 32006KT 06/05 A3003 RMK A01 T00620049  RH  091%=      5-min Rain = 0
KLA1 140915Z 32006KT 06/05 A3003 RMK A01 T00620049  RH  092%=      5-min Rain = 0
KLA1 140916Z 32007KT 06/05 A3003 RMK A01 T00620049  RH  092%=      5-min Rain = 0
KLA1 140917Z 32006KT 06/05 A3003 RMK A01 T00620049  RH  092%=      5-min Rain = 0
KLA1 140918Z 31007KT 06/05 A3003 RMK A01 T00620050  RH  092%=      5-min Rain = 0
KLA1 140919Z 32006KT 06/05 A3003 RMK A01 T00620050  RH  092%=      5-min Rain = 0
KLA1 140920Z 33006KT 06/05 A3003 RMK A01 T00620050  RH  092%=      5-min Rain = 0
KLA1 140921Z 32009KT 06/05 A3003 RMK A01 T00620050  RH  092%=      5-min Rain = 0
KLA1 140922Z 33007KT 06/05 A3003 RMK A01 T00620049  RH  092%=      5-min Rain = 0
KLA1 140923Z 32007KT 06/05 A3003 RMK A01 T00620049  RH  091%=      5-min Rain = 0
KLA1 140924Z 33007KT 06/05 A3003 RMK A01 T00620049  RH  091%=      5-min Rain = 0
KLA1 140925Z 33007KT 06/05 A3003 RMK A01 T00620049  RH  091%=      5-min Rain = 0
KLA1 140926Z 32008KT 06/05 A3003 RMK A01 T00630048  RH  091%=      5-min Rain = 0
KLA1 140927Z 32009KT 06/05 A3003 RMK A01 T00630049  RH  091%=      5-min Rain = 0
KLA1 140928Z 32009KT 06/05 A3003 RMK A01 T00630048  RH  091%=      5-min Rain = 0
KLA1 140929Z 33011KT 06/05 A3002 RMK A01 T00630049  RH  090%=      5-min Rain = 0
KLA1 140930Z 32010KT 06/05 A3002 RMK A01 T00630048  RH  090%=      5-min Rain = 0
KLA1 140931Z 32009KT 06/05 A3002 RMK A01 T00630048  RH  090%=      5-min Rain = 0
KLA1 140932Z 32009KT 06/05 A3002 RMK A01 T00630048  RH  090%=      5-min Rain = 0
KLA1 140933Z 33008KT 06/05 A3002 RMK A01 T00630048  RH  090%=      5-min Rain = 0
KLA1 140934Z 32010KT 06/05 A3002 RMK A01 T00630049  RH  090%=      5-min Rain = 0
KLA1 140935Z 32009KT 06/05 A3002 RMK A01 T00630049  RH  090%=      5-min Rain = 0
KLA1 140936Z 32009KT 06/05 A3002 RMK A01 T00630048  RH  090%=      5-min Rain = 0
KLA1 140937Z 32011KT 06/05 A3002 RMK A01 T00630048  RH  090%=      5-min Rain = 0
KLA1 140938Z 32011KT 06/05 A3002 RMK A01 T00630048  RH  090%=      5-min Rain = 0
KLA1 140939Z 33009KT 06/05 A3002 RMK A01 T00630048  RH  090%=      5-min Rain = 0
KLA1 140940Z 32008KT 06/05 A3003 RMK A01 T00640048  RH  090%=      5-min Rain = 0
KLA1 140941Z 32008KT 06/05 A3003 RMK A01 T00640048  RH  090%=      5-min Rain = 0
KLA1 140942Z 32008KT 06/05 A3003 RMK A01 T00640049  RH  090%=      5-min Rain = 0
KLA1 140943Z 31010KT 06/05 A3003 RMK A01 T00640049  RH  090%=      5-min Rain = 0
KLA1 140944Z 31010KT 06/05 A3003 RMK A01 T00640049  RH  090%=      5-min Rain = 0
KLA1 140945Z 32008KT 06/05 A3003 RMK A01 T00640049  RH  090%=      5-min Rain = 0
KLA1 140946Z 32009KT 06/05 A3003 RMK A01 T00640049  RH  090%=      5-min Rain = 0
KLA1 140947Z 32008KT 06/05 A3003 RMK A01 T00640049  RH  090%=      5-min Rain = 0
KLA1 140948Z 32008G13KT 06/05 A3002 RMK A01 T00640049  RH  091%=      5-min Rain = 0
KLA1 140949Z 32007KT 06/05 A3002 RMK A01 T00630049  RH  091%=      5-min Rain = 0
KLA1 140950Z 32007KT 06/05 A3002 RMK A01 T00630049  RH  091%=      5-min Rain = 0
KLA1 140951Z 32008KT 06/05 A3002 RMK A01 T00630050  RH  091%=      5-min Rain = 0
KLA1 140952Z 33008KT 06/05 A3002 RMK A01 T00630049  RH  091%=      5-min Rain = 0
KLA1 140953Z 32008KT 06/05 A3002 RMK A01 T00630049  RH  091%=      5-min Rain = 0
KLA1 140954Z 32007KT 06/05 A3002 RMK A01 T00630049  RH  091%=      5-min Rain = 0
KLA1 140955Z 32008KT 06/05 A3002 RMK A01 T00630049  RH  091%=      5-min Rain = 0
KLA1 140956Z 32008KT 06/05 A3003 RMK A01 T00630049  RH  091%=      5-min Rain = 0
KLA1 140957Z 31009KT 06/05 A3003 RMK A01 T00630049  RH  091%=      5-min Rain = 0
KLA1 140958Z 32008KT 06/05 A3003 RMK A01 T00630049  RH  091%=      5-min Rain = 0
KLA1 140959Z 31009KT 06/05 A3003 RMK A01 T00630049  RH  091%=      5-min Rain = 0
KLA1 141000Z 32008KT 06/05 A3003 RMK A01 T00630050  RH  091%=      5-min Rain = 0
KLA1 141001Z 32008KT 06/05 A3003 RMK A01 T00630050  RH  091%=      5-min Rain = 0
KLA1 141002Z 32007KT 06/05 A3003 RMK A01 T00630050  RH  091%=      5-min Rain = 0
KLA1 141003Z 32009KT 06/05 A3003 RMK A01 T00640051  RH  091%=      5-min Rain = 0
KLA1 141004Z 32010G15KT 06/05 A3002 RMK A01 T00630050  RH  091%=      5-min Rain = 0
KLA1 141005Z 32009KT 06/05 A3002 RMK A01 T00630050  RH  091%=      5-min Rain = 0
KLA1 141006Z 33008KT 06/05 A3002 RMK A01 T00630050  RH  091%=      5-min Rain = 0
KLA1 141007Z 32009KT 06/05 A3002 RMK A01 T00630049  RH  091%=      5-min Rain = 0
KLA1 141008Z 32009KT 06/05 A3002 RMK A01 T00630049  RH  091%=      5-min Rain = 0
KLA1 141009Z 33008G13KT 06/05 A3002 RMK A01 T00630049  RH  091%=      5-min Rain = 0
KLA1 141010Z 33009KT 06/05 A3002 RMK A01 T00630049  RH  091%=      5-min Rain = 0
KLA1 141011Z 33011KT 06/05 A3002 RMK A01 T00630048  RH  090%=      5-min Rain = 0
KLA1 141012Z 32009KT 06/05 A3002 RMK A01 T00630048  RH  090%=      5-min Rain = 0
KLA1 141013Z 33010KT 06/05 A3002 RMK A01 T00630048  RH  090%=      5-min Rain = 0
KLA1 141014Z 33010KT 06/05 A3002 RMK A01 T00630048  RH  090%=      5-min Rain = 0
KLA1 141015Z 32008KT 06/05 A3002 RMK A01 T00640048  RH  090%=      5-min Rain = 0
KLA1 141016Z 32008G13KT 06/05 A3002 RMK A01 T00640048  RH  090%=      5-min Rain = 0
KLA1 141017Z 32008KT 06/05 A3002 RMK A01 T00640048  RH  090%=      5-min Rain = 0
KLA1 141018Z 34008KT 06/05 A3002 RMK A01 T00640048  RH  090%=      5-min Rain = 0
KLA1 141019Z 33008G15KT 06/05 A3003 RMK A01 T00640048  RH  090%=      5-min Rain = 0
KLA1 141020Z 33010KT 06/05 A3003 RMK A01 T00640047  RH  089%=      5-min Rain = 0
KLA1 141021Z 33012KT 06/05 A3003 RMK A01 T00640047  RH  089%=      5-min Rain = 0.01
KLA1 141022Z 32011KT 06/05 A3003 RMK A01 T00640047  RH  089%=      5-min Rain = 0
KLA1 141023Z 32009KT 06/05 A3003 RMK A01 T00640047  RH  089%=      5-min Rain = 0
KLA1 141024Z 32007KT 06/05 A3003 RMK A01 T00640047  RH  089%=      5-min Rain = 0
KLA1 141025Z 32008KT 06/05 A3003 RMK A01 T00640048  RH  089%=      5-min Rain = 0
KLA1 141026Z 32008KT 06/05 A3003 RMK A01 T00640048  RH  089%=      5-min Rain = 0
KLA1 141027Z 32007KT 06/05 A3002 RMK A01 T00640048  RH  090%=      5-min Rain = 0
KLA1 141028Z 33007KT 06/05 A3002 RMK A01 T00640049  RH  090%=      5-min Rain = 0
KLA1 141029Z 33008KT 06/05 A3002 RMK A01 T00640049  RH  090%=      5-min Rain = 0
KLA1 141030Z 33007KT 06/05 A3002 RMK A01 T00640049  RH  090%=      5-min Rain = 0
KLA1 141031Z 32008KT 06/05 A3002 RMK A01 T00640049  RH  090%=      5-min Rain = 0
KLA1 141032Z 32008KT 06/05 A3002 RMK A01 T00640049  RH  090%=      5-min Rain = 0
KLA1 141033Z 32010KT 06/05 A3002 RMK A01 T00640049  RH  090%=      5-min Rain = 0
KLA1 141034Z 31008KT 06/05 A3003 RMK A01 T00640049  RH  090%=      5-min Rain = 0
KLA1 141035Z 32010KT 06/05 A3003 RMK A01 T00640049  RH  090%=      5-min Rain = 0
KLA1 141036Z 32009KT 06/05 A3003 RMK A01 T00640049  RH  090%=      5-min Rain = 0
KLA1 141037Z 32009KT 06/05 A3003 RMK A01 T00640049  RH  090%=      5-min Rain = 0
KLA1 141038Z 32006KT 06/05 A3003 RMK A01 T00640049  RH  090%=      5-min Rain = 0
KLA1 141039Z 32008KT 06/05 A3003 RMK A01 T00640048  RH  090%=      5-min Rain = 0
KLA1 141040Z 32007KT 06/05 A3003 RMK A01 T00640049  RH  090%=      5-min Rain = 0
KLA1 141041Z 33007G12KT 06/05 A3003 RMK A01 T00640049  RH  090%=      5-min Rain = 0
KLA1 141042Z 33009KT 06/05 A3003 RMK A01 T00640049  RH  090%=      5-min Rain = 0
KLA1 141043Z 33009KT 06/05 A3003 RMK A01 T00640049  RH  090%=      5-min Rain = 0
KLA1 141044Z 33009KT 06/05 A3003 RMK A01 T00640049  RH  090%=      5-min Rain = 0
KLA1 141045Z 32007KT 06/05 A3003 RMK A01 T00640048  RH  090%=      5-min Rain = 0
KLA1 141046Z 33007KT 06/05 A3002 RMK A01 T00640049  RH  090%=      5-min Rain = 0
KLA1 141047Z 32007KT 06/05 A3002 RMK A01 T00640049  RH  090%=      5-min Rain = 0
KLA1 141048Z 32007KT 06/05 A3002 RMK A01 T00640050  RH  091%=      5-min Rain = 0
KLA1 141049Z 33006KT 06/05 A3002 RMK A01 T00640050  RH  091%=      5-min Rain = 0
KLA1 141050Z 32006KT 06/05 A3002 RMK A01 T00640050  RH  091%=      5-min Rain = 0
KLA1 141051Z 32006KT 06/05 A3002 RMK A01 T00640050  RH  091%=      5-min Rain = 0
KLA1 141052Z 31006KT 06/05 A3002 RMK A01 T00640051  RH  091%=      5-min Rain = 0
KLA1 141053Z 31009KT 06/05 A3002 RMK A01 T00640051  RH  092%=      5-min Rain = 0
KLA1 141054Z 31007KT 06/05 A3002 RMK A01 T00630050  RH  092%=      5-min Rain = 0
KLA1 141055Z 31007KT 06/05 A3002 RMK A01 T00630051  RH  092%=      5-min Rain = 0
KLA1 141056Z 32008KT 06/05 A3002 RMK A01 T00630050  RH  092%=      5-min Rain = 0
KLA1 141057Z 32008KT 06/05 A3002 RMK A01 T00630050  RH  092%=      5-min Rain = 0
KLA1 141058Z 32008KT 06/05 A3002 RMK A01 T00630050  RH  091%=      5-min Rain = 0
KLA1 141059Z 31008KT 06/05 A3002 RMK A01 T00630050  RH  091%=      5-min Rain = 0
KLA1 141100Z 32006KT 06/05 A3002 RMK A01 T00630050  RH  091%=      5-min Rain = 0
KLA1 141101Z 31006KT 06/05 A3002 RMK A01 T00630051  RH  092%=      5-min Rain = 0
KLA1 141102Z 31006KT 06/05 A3002 RMK A01 T00630051  RH  092%=      5-min Rain = 0
KLA1 141103Z 31006KT 06/05 A3002 RMK A01 T00630051  RH  092%=      5-min Rain = 0
KLA1 141104Z 32005KT 06/05 A3002 RMK A01 T00630052  RH  092%=      5-min Rain = 0
KLA1 141105Z 31009KT 06/05 A3002 RMK A01 T00630052  RH  092%=      5-min Rain = 0
KLA1 141106Z 31007KT 06/05 A3002 RMK A01 T00630051  RH  092%=      5-min Rain = 0
KLA1 141107Z 31006KT 06/05 A3002 RMK A01 T00630051  RH  092%=      5-min Rain = 0
KLA1 141108Z 31007KT 06/05 A3003 RMK A01 T00630051  RH  092%=      5-min Rain = 0
KLA1 141109Z 31008KT 06/05 A3003 RMK A01 T00630051  RH  092%=      5-min Rain = 0
KLA1 141110Z 31009KT 06/05 A3003 RMK A01 T00630051  RH  092%=      5-min Rain = 0
KLA1 141111Z 31008KT 06/05 A3003 RMK A01 T00630051  RH  092%=      5-min Rain = 0
KLA1 141112Z 31008KT 06/05 A3003 RMK A01 T00630050  RH  092%=      5-min Rain = 0
KLA1 141113Z 31008KT 06/05 A3003 RMK A01 T00630050  RH  091%=      5-min Rain = 0
KLA1 141114Z 31007KT 06/05 A3003 RMK A01 T00630050  RH  091%=      5-min Rain = 0
KLA1 141115Z 31007KT 06/05 A3003 RMK A01 T00630051  RH  092%=      5-min Rain = 0
KLA1 141116Z 31008KT 06/05 A3002 RMK A01 T00630051  RH  092%=      5-min Rain = 0
KLA1 141117Z 31007KT 06/05 A3002 RMK A01 T00630050  RH  091%=      5-min Rain = 0
KLA1 141118Z 31007KT 06/05 A3002 RMK A01 T00640051  RH  092%=      5-min Rain = 0
KLA1 141119Z 31008KT 06/05 A3002 RMK A01 T00640051  RH  092%=      5-min Rain = 0
KLA1 141120Z 32009KT 06/05 A3002 RMK A01 T00640051  RH  091%=      5-min Rain = 0
KLA1 141121Z 30010KT 06/05 A3002 RMK A01 T00640051  RH  091%=      5-min Rain = 0
KLA1 141122Z 31009KT 06/05 A3002 RMK A01 T00640050  RH  091%=      5-min Rain = 0
KLA1 141123Z 31009KT 06/05 A3002 RMK A01 T00640050  RH  091%=      5-min Rain = 0
KLA1 141124Z 31010KT 06/05 A3002 RMK A01 T00640050  RH  091%=      5-min Rain = 0
KLA1 141125Z 31008KT 06/05 A3002 RMK A01 T00640049  RH  090%=      5-min Rain = 0
KLA1 141126Z 32008KT 06/05 A3002 RMK A01 T00640049  RH  091%=      5-min Rain = 0
KLA1 141127Z 31008KT 06/05 A3002 RMK A01 T00640050  RH  091%=      5-min Rain = 0
KLA1 141128Z 32010KT 06/05 A3002 RMK A01 T00640050  RH  091%=      5-min Rain = 0
KLA1 141129Z 32008KT 06/05 A3002 RMK A01 T00640049  RH  091%=      5-min Rain = 0
KLA1 141130Z 32008KT 06/05 A3002 RMK A01 T00640049  RH  091%=      5-min Rain = 0
KLA1 141131Z 31007KT 06/05 A3002 RMK A01 T00640050  RH  091%=      5-min Rain = 0
KLA1 141132Z 32007KT 06/05 A3002 RMK A01 T00640050  RH  091%=      5-min Rain = 0
KLA1 141133Z 31008KT 06/05 A3003 RMK A01 T00640050  RH  091%=      5-min Rain = 0
KLA1 141134Z 31011KT 06/05 A3002 RMK A01 T00640050  RH  091%=      5-min Rain = 0
KLA1 141135Z 31008KT 06/05 A3002 RMK A01 T00640049  RH  091%=      5-min Rain = 0
KLA1 141136Z 31009KT 06/05 A3003 RMK A01 T00640049  RH  090%=      5-min Rain = 0
KLA1 141137Z 31009KT 06/05 A3002 RMK A01 T00640049  RH  090%=      5-min Rain = 0
KLA1 141138Z 32007KT 06/05 A3002 RMK A01 T00640050  RH  090%=      5-min Rain = 0
KLA1 141139Z 32006KT 06/05 A3003 RMK A01 T00640050  RH  091%=      5-min Rain = 0
KLA1 141140Z 31009KT 06/05 A3003 RMK A01 T00640050  RH  091%=      5-min Rain = 0
KLA1 141141Z 31009KT 06/05 A3003 RMK A01 T00640050  RH  091%=      5-min Rain = 0
KLA1 141142Z 31009G14KT 06/05 A3003 RMK A01 T00640050  RH  090%=      5-min Rain = 0
KLA1 141143Z 31010KT 06/05 A3003 RMK A01 T00640049  RH  090%=      5-min Rain = 0
KLA1 141144Z 31007KT 06/05 A3003 RMK A01 T00640049  RH  090%=      5-min Rain = 0
KLA1 141145Z 31009KT 06/05 A3003 RMK A01 T00640049  RH  090%=      5-min Rain = 0
KLA1 141146Z 31009KT 06/05 A3003 RMK A01 T00640049  RH  090%=      5-min Rain = 0
KLA1 141147Z 31009KT 06/05 A3003 RMK A01 T00640049  RH  090%=      5-min Rain = 0
KLA1 141148Z 33007KT 07/05 A3003 RMK A01 T00650049  RH  090%=      5-min Rain = 0
KLA1 141149Z 32006KT 07/05 A3003 RMK A01 T00650049  RH  090%=      5-min Rain = 0
KLA1 141150Z 32006KT 07/05 A3002 RMK A01 T00650049  RH  090%=      5-min Rain = 0
KLA1 141151Z 31006KT 07/05 A3002 RMK A01 T00650050  RH  090%=      5-min Rain = 0
KLA1 141152Z 32006KT 07/05 A3003 RMK A01 T00650050  RH  090%=      5-min Rain = 0
KLA1 141153Z 31008KT 07/05 A3003 RMK A01 T00650050  RH  090%=      5-min Rain = 0
KLA1 141154Z 31007KT 06/05 A3003 RMK A01 T00640050  RH  090%=      5-min Rain = 0
KLA1 141155Z 32006KT 07/05 A3003 RMK A01 T00650050  RH  090%=      5-min Rain = 0
KLA1 141156Z 32007KT 07/05 A3003 RMK A01 T00650050  RH  091%=      5-min Rain = 0
KLA1 141157Z 31009KT 07/05 A3003 RMK A01 T00650050  RH  090%=      5-min Rain = 0
KLA1 141158Z 32006KT 07/05 A3003 RMK A01 T00650050  RH  090%=      5-min Rain = 0
KLA1 141159Z 31008KT 07/05 A3003 RMK A01 T00650049  RH  090%=      5-min Rain = 0
KLA1 141200Z 31006KT 07/05 A3003 RMK A01 T00650049  RH  090%=      5-min Rain = 0
KLA1 141201Z 31007KT 07/05 A3003 RMK A01 T00650050  RH  090%=      5-min Rain = 0
KLA1 141202Z 32007KT 07/05 A3003 RMK A01 T00650050  RH  090%=      5-min Rain = 0
KLA1 141203Z 31005KT 07/05 A3003 RMK A01 T00650050  RH  090%=      5-min Rain = 0
KLA1 141204Z 30009KT 07/05 A3003 RMK A01 T00650050  RH  090%=      5-min Rain = 0
KLA1 141205Z 31008KT 07/05 A3003 RMK A01 T00650050  RH  090%=      5-min Rain = 0
KLA1 141206Z 32009KT 07/05 A3003 RMK A01 T00650050  RH  090%=      5-min Rain = 0
KLA1 141207Z 31010KT 06/05 A3003 RMK A01 T00640049  RH  090%=      5-min Rain = 0
KLA1 141208Z 31010KT 07/05 A3003 RMK A01 T00650049  RH  090%=      5-min Rain = 0
KLA1 141209Z 31010KT 07/05 A3003 RMK A01 T00650049  RH  089%=      5-min Rain = 0
KLA1 141210Z 31011KT 07/05 A3003 RMK A01 T00650048  RH  089%=      5-min Rain = 0
KLA1 141211Z 31009KT 07/05 A3003 RMK A01 T00650049  RH  089%=      5-min Rain = 0
KLA1 141212Z 31008KT 07/05 A3003 RMK A01 T00650048  RH  089%=      5-min Rain = 0
KLA1 141213Z 32009KT 07/05 A3003 RMK A01 T00650048  RH  089%=      5-min Rain = 0
KLA1 141214Z 31007KT 07/05 A3003 RMK A01 T00650049  RH  089%=      5-min Rain = 0
KLA1 141215Z 32008KT 07/05 A3003 RMK A01 T00650049  RH  090%=      5-min Rain = 0
KLA1 141216Z 32009KT 07/05 A3003 RMK A01 T00650049  RH  090%=      5-min Rain = 0
KLA1 141217Z 32007KT 07/05 A3003 RMK A01 T00650049  RH  090%=      5-min Rain = 0
KLA1 141218Z 32007G12KT 07/05 A3003 RMK A01 T00650049  RH  090%=      5-min Rain = 0
KLA1 141219Z 31006KT 07/05 A3003 RMK A01 T00650049  RH  090%=      5-min Rain = 0
KLA1 141220Z 31007KT 07/05 A3003 RMK A01 T00650050  RH  090%=      5-min Rain = 0
KLA1 141221Z 31006KT 07/05 A3003 RMK A01 T00650050  RH  090%=      5-min Rain = 0
KLA1 141222Z 31006KT 07/05 A3004 RMK A01 T00650049  RH  090%=      5-min Rain = 0
KLA1 141223Z 31006KT 07/05 A3004 RMK A01 T00650049  RH  090%=      5-min Rain = 0
KLA1 141224Z 31006KT 07/05 A3004 RMK A01 T00650050  RH  090%=      5-min Rain = 0
KLA1 141225Z 31005KT 07/05 A3004 RMK A01 T00650050  RH  090%=      5-min Rain = 0
KLA1 141226Z 31008KT 07/05 A3004 RMK A01 T00650050  RH  090%=      5-min Rain = 0
KLA1 141227Z 31008KT 07/05 A3004 RMK A01 T00650049  RH  090%=      5-min Rain = 0
KLA1 141228Z 30007KT 07/05 A3004 RMK A01 T00650049  RH  090%=      5-min Rain = 0
KLA1 141229Z 31007KT 07/05 A3004 RMK A01 T00650050  RH  090%=      5-min Rain = 0
KLA1 141230Z 31009KT 07/05 A3004 RMK A01 T00660050  RH  090%=      5-min Rain = 0
KLA1 141231Z 30010KT 07/05 A3004 RMK A01 T00650050  RH  090%=      5-min Rain = 0
KLA1 141232Z 30008KT 07/05 A3005 RMK A01 T00660049  RH  089%=      5-min Rain = 0
KLA1 141233Z 30009KT 07/05 A3005 RMK A01 T00660050  RH  090%=      5-min Rain = 0
KLA1 141234Z 30009KT 07/05 A3005 RMK A01 T00660049  RH  089%=      5-min Rain = 0
KLA1 141235Z 30010KT 07/05 A3005 RMK A01 T00660049  RH  089%=      5-min Rain = 0
KLA1 141236Z 31010KT 07/05 A3005 RMK A01 T00660049  RH  089%=      5-min Rain = 0
KLA1 141237Z 30008KT 07/05 A3005 RMK A01 T00660049  RH  089%=      5-min Rain = 0
KLA1 141238Z 30008KT 07/05 A3005 RMK A01 T00660049  RH  089%=      5-min Rain = 0
KLA1 141239Z 30010KT 07/05 A3005 RMK A01 T00670049  RH  089%=      5-min Rain = 0
KLA1 141240Z 31008KT 07/05 A3005 RMK A01 T00660049  RH  089%=      5-min Rain = 0
KLA1 141241Z 31007KT 07/05 A3005 RMK A01 T00660049  RH  089%=      5-min Rain = 0
KLA1 141242Z 31006KT 07/05 A3005 RMK A01 T00660049  RH  089%=      5-min Rain = 0
KLA1 141243Z 32007KT 07/05 A3005 RMK A01 T00660050  RH  089%=      5-min Rain = 0
KLA1 141244Z 31006KT 07/05 A3005 RMK A01 T00670050  RH  089%=      5-min Rain = 0
KLA1 141245Z 31007KT 07/05 A3005 RMK A01 T00670050  RH  089%=      5-min Rain = 0
KLA1 141246Z 31007KT 07/05 A3005 RMK A01 T00670049  RH  089%=      5-min Rain = 0
KLA1 141247Z 31007KT 07/05 A3005 RMK A01 T00660049  RH  089%=      5-min Rain = 0
KLA1 141248Z 31005KT 07/05 A3005 RMK A01 T00660049  RH  089%=      5-min Rain = 0
KLA1 141249Z 31007KT 07/05 A3005 RMK A01 T00670050  RH  089%=      5-min Rain = 0
KLA1 141250Z 31006KT 07/05 A3005 RMK A01 T00670050  RH  089%=      5-min Rain = 0
KLA1 141251Z 31006KT 07/05 A3005 RMK A01 T00670050  RH  089%=      5-min Rain = 0
KLA1 141252Z 31005KT 07/05 A3005 RMK A01 T00670050  RH  089%=      5-min Rain = 0
KLA1 141253Z 31004KT 07/05 A3005 RMK A01 T00660050  RH  090%=      5-min Rain = 0
KLA1 141254Z 31005KT 07/05 A3005 RMK A01 T00670051  RH  090%=      5-min Rain = 0
KLA1 141255Z 31005KT 07/05 A3005 RMK A01 T00660051  RH  090%=      5-min Rain = 0
KLA1 141256Z 31006KT 07/05 A3005 RMK A01 T00670051  RH  090%=      5-min Rain = 0
KLA1 141257Z 30005KT 07/05 A3005 RMK A01 T00670051  RH  090%=      5-min Rain = 0
KLA1 141258Z 30007KT 07/05 A3005 RMK A01 T00660051  RH  090%=      5-min Rain = 0
KLA1 141259Z 31006KT 07/05 A3006 RMK A01 T00660051  RH  090%=      5-min Rain = 0
KLA1 141300Z 31006KT 07/05 A3006 RMK A01 T00660051  RH  090%=      5-min Rain = 0
KLA1 141301Z 31006KT 07/05 A3006 RMK A01 T00670051  RH  090%=      5-min Rain = 0
KLA1 141302Z 31004KT 07/05 A3006 RMK A01 T00660051  RH  090%=      5-min Rain = 0
KLA1 141303Z 31004KT 07/05 A3005 RMK A01 T00670052  RH  090%=      5-min Rain = 0
KLA1 141304Z 32004KT 07/05 A3005 RMK A01 T00660051  RH  090%=      5-min Rain = 0
KLA1 141305Z 32004KT 07/05 A3005 RMK A01 T00660051  RH  090%=      5-min Rain = 0
KLA1 141306Z 32004KT 07/05 A3005 RMK A01 T00670051  RH  090%=      5-min Rain = 0
KLA1 141307Z 32004KT 07/05 A3005 RMK A01 T00660051  RH  090%=      5-min Rain = 0
KLA1 141308Z 33005KT 07/05 A3005 RMK A01 T00660051  RH  090%=      5-min Rain = 0
KLA1 141309Z 32004KT 07/05 A3006 RMK A01 T00660050  RH  089%=      5-min Rain = 0
KLA1 141310Z 32005KT 07/05 A3006 RMK A01 T00670050  RH  089%=      5-min Rain = 0
KLA1 141311Z 32004KT 07/05 A3006 RMK A01 T00670050  RH  089%=      5-min Rain = 0
KLA1 141312Z 32005KT 07/05 A3006 RMK A01 T00670049  RH  089%=      5-min Rain = 0
KLA1 141313Z 32005KT 07/05 A3006 RMK A01 T00670049  RH  088%=      5-min Rain = 0
KLA1 141314Z 32005KT 07/05 A3006 RMK A01 T00680049  RH  088%=      5-min Rain = 0
KLA1 141315Z 33005KT 07/05 A3006 RMK A01 T00670049  RH  088%=      5-min Rain = 0
KLA1 141316Z 32004KT 07/05 A3006 RMK A01 T00670049  RH  088%=      5-min Rain = 0
KLA1 141317Z 32005KT 07/05 A3006 RMK A01 T00670049  RH  088%=      5-min Rain = 0
KLA1 141318Z 32005KT 07/05 A3006 RMK A01 T00680050  RH  088%=      5-min Rain = 0
KLA1 141319Z 31005KT 07/05 A3006 RMK A01 T00680050  RH  089%=      5-min Rain = 0
KLA1 141320Z 32004KT 07/05 A3006 RMK A01 T00670050  RH  089%=      5-min Rain = 0
KLA1 141321Z 32004KT 07/05 A3006 RMK A01 T00670050  RH  089%=      5-min Rain = 0
KLA1 141322Z 31006KT 07/05 A3006 RMK A01 T00670050  RH  089%=      5-min Rain = 0
KLA1 141323Z 33005KT 07/05 A3005 RMK A01 T00670050  RH  089%=      5-min Rain = 0
KLA1 141324Z 32005KT 07/05 A3005 RMK A01 T00680050  RH  088%=      5-min Rain = 0
KLA1 141325Z 33005KT 07/05 A3005 RMK A01 T00670049  RH  088%=      5-min Rain = 0
KLA1 141326Z 33004KT 07/05 A3005 RMK A01 T00670049  RH  088%=      5-min Rain = 0
KLA1 141327Z 32005KT 07/05 A3005 RMK A01 T00670049  RH  088%=      5-min Rain = 0
KLA1 141328Z 32006KT 07/05 A3005 RMK A01 T00680050  RH  088%=      5-min Rain = 0
KLA1 141329Z 33005KT 07/05 A3005 RMK A01 T00680050  RH  088%=      5-min Rain = 0
KLA1 141330Z 33005KT 07/05 A3005 RMK A01 T00680049  RH  088%=      5-min Rain = 0
KLA1 141331Z 32004KT 07/05 A3005 RMK A01 T00680049  RH  088%=      5-min Rain = 0
KLA1 141332Z 33004KT 07/05 A3005 RMK A01 T00680049  RH  088%=      5-min Rain = 0
KLA1 141333Z 33005KT 07/05 A3005 RMK A01 T00680049  RH  088%=      5-min Rain = 0
KLA1 141334Z 33006KT 07/05 A3005 RMK A01 T00680049  RH  088%=      5-min Rain = 0
KLA1 141335Z 33005KT 07/05 A3005 RMK A01 T00680049  RH  088%=      5-min Rain = 0
KLA1 141336Z 32005KT 07/05 A3005 RMK A01 T00690050  RH  088%=      5-min Rain = 0
KLA1 141337Z 32005KT 07/05 A3005 RMK A01 T00680050  RH  088%=      5-min Rain = 0
KLA1 141338Z 32004KT 07/05 A3005 RMK A01 T00680050  RH  088%=      5-min Rain = 0
KLA1 141339Z 32005KT 07/05 A3005 RMK A01 T00680050  RH  088%=      5-min Rain = 0
KLA1 141340Z 32005KT 07/05 A3005 RMK A01 T00680050  RH  088%=      5-min Rain = 0
KLA1 141341Z 33004KT 07/05 A3005 RMK A01 T00690050  RH  088%=      5-min Rain = 0
KLA1 141342Z 32007KT 07/05 A3005 RMK A01 T00680050  RH  088%=      5-min Rain = 0
KLA1 141343Z 31005KT 07/05 A3005 RMK A01 T00680049  RH  088%=      5-min Rain = 0
KLA1 141344Z 32006KT 07/05 A3006 RMK A01 T00690049  RH  088%=      5-min Rain = 0
KLA1 141345Z 32006KT 07/05 A3006 RMK A01 T00690050  RH  088%=      5-min Rain = 0
KLA1 141346Z 32004KT 07/05 A3006 RMK A01 T00690050  RH  088%=      5-min Rain = 0
KLA1 141347Z 33005KT 07/05 A3006 RMK A01 T00690051  RH  088%=      5-min Rain = 0
KLA1 141348Z 32005KT 07/05 A3006 RMK A01 T00690051  RH  088%=      5-min Rain = 0
KLA1 141349Z 33004KT 07/05 A3006 RMK A01 T00690050  RH  088%=      5-min Rain = 0
KLA1 141350Z 31005KT 07/05 A3006 RMK A01 T00690050  RH  088%=      5-min Rain = 0
KLA1 141351Z 31007KT 07/05 A3006 RMK A01 T00690050  RH  088%=      5-min Rain = 0
KLA1 141352Z 32006KT 07/05 A3006 RMK A01 T00690049  RH  087%=      5-min Rain = 0
KLA1 141353Z 32006KT 07/05 A3006 RMK A01 T00690049  RH  087%=      5-min Rain = 0
KLA1 141354Z 31008KT 07/05 A3006 RMK A01 T00690049  RH  087%=      5-min Rain = 0
KLA1 141355Z 31007KT 07/05 A3006 RMK A01 T00700049  RH  087%=      5-min Rain = 0
KLA1 141356Z 32005KT 07/05 A3006 RMK A01 T00700049  RH  087%=      5-min Rain = 0
KLA1 141357Z 32006KT 07/05 A3006 RMK A01 T00700049  RH  087%=      5-min Rain = 0
KLA1 141358Z 32005KT 07/05 A3006 RMK A01 T00700049  RH  087%=      5-min Rain = 0
KLA1 141359Z 32006KT 07/05 A3006 RMK A01 T00700049  RH  087%=      5-min Rain = 0
KLA1 141400Z 33004KT 07/05 A3006 RMK A01 T00700049  RH  087%=      5-min Rain = 0
KLA1 141401Z 33005KT 07/05 A3007 RMK A01 T00700049  RH  087%=      5-min Rain = 0
KLA1 141402Z 31007KT 07/05 A3007 RMK A01 T00700050  RH  087%=      5-min Rain = 0
KLA1 141403Z 32007KT 07/05 A3007 RMK A01 T00700050  RH  087%=      5-min Rain = 0
KLA1 141404Z 32009KT 07/05 A3007 RMK A01 T00700050  RH  087%=      5-min Rain = 0
KLA1 141405Z 33008KT 07/05 A3007 RMK A01 T00700049  RH  087%=      5-min Rain = 0
KLA1 141406Z 33008KT 07/05 A3007 RMK A01 T00700049  RH  087%=      5-min Rain = 0
KLA1 141407Z 33009KT 07/05 A3007 RMK A01 T00700049  RH  086%=      5-min Rain = 0
KLA1 141408Z 32007KT 07/05 A3007 RMK A01 T00700049  RH  086%=      5-min Rain = 0
KLA1 141409Z 32009KT 07/05 A3007 RMK A01 T00700049  RH  086%=      5-min Rain = 0
KLA1 141410Z 33008KT 07/05 A3007 RMK A01 T00700049  RH  087%=      5-min Rain = 0
KLA1 141411Z 33006KT 07/05 A3007 RMK A01 T00700049  RH  087%=      5-min Rain = 0
KLA1 141412Z 32007KT 07/05 A3007 RMK A01 T00700050  RH  087%=      5-min Rain = 0
KLA1 141413Z 33006KT 07/05 A3007 RMK A01 T00700050  RH  087%=      5-min Rain = 0
KLA1 141414Z 32007KT 07/05 A3007 RMK A01 T00710051  RH  087%=      5-min Rain = 0
KLA1 141415Z 31007KT 07/05 A3007 RMK A01 T00710051  RH  087%=      5-min Rain = 0
KLA1 141416Z 32008KT 07/05 A3007 RMK A01 T00710050  RH  087%=      5-min Rain = 0
KLA1 141417Z 32007KT 07/05 A3007 RMK A01 T00710050  RH  087%=      5-min Rain = 0
KLA1 141418Z 32009KT 07/05 A3007 RMK A01 T00710051  RH  087%=      5-min Rain = 0
KLA1 141419Z 32009KT 07/05 A3007 RMK A01 T00710050  RH  087%=      5-min Rain = 0
KLA1 141420Z 32008KT 07/05 A3007 RMK A01 T00710050  RH  087%=      5-min Rain = 0
KLA1 141421Z 31009KT 07/05 A3007 RMK A01 T00710051  RH  087%=      5-min Rain = 0
KLA1 141422Z 32008KT 07/05 A3007 RMK A01 T00710051  RH  087%=      5-min Rain = 0
KLA1 141423Z 32008KT 07/05 A3007 RMK A01 T00710051  RH  087%=      5-min Rain = 0
KLA1 141424Z 32007KT 07/05 A3007 RMK A01 T00720051  RH  087%=      5-min Rain = 0
KLA1 141425Z 32009KT 07/05 A3007 RMK A01 T00720051  RH  087%=      5-min Rain = 0
KLA1 141426Z 32007KT 07/05 A3007 RMK A01 T00720051  RH  087%=      5-min Rain = 0
KLA1 141427Z 32006KT 07/05 A3007 RMK A01 T00720051  RH  087%=      5-min Rain = 0
KLA1 141428Z 33005KT 07/05 A3007 RMK A01 T00720052  RH  087%=      5-min Rain = 0
KLA1 141429Z 33006KT 07/05 A3007 RMK A01 T00720051  RH  087%=      5-min Rain = 0
KLA1 141430Z 32006KT 07/05 A3007 RMK A01 T00720052  RH  087%=      5-min Rain = 0
KLA1 141431Z 32005KT 07/05 A3007 RMK A01 T00720052  RH  087%=      5-min Rain = 0
KLA1 141432Z 33005KT 07/05 A3007 RMK A01 T00720052  RH  087%=      5-min Rain = 0
KLA1 141433Z 34005KT 07/05 A3007 RMK A01 T00730053  RH  087%=      5-min Rain = 0
KLA1 141434Z 33006KT 07/05 A3007 RMK A01 T00730052  RH  087%=      5-min Rain = 0
KLA1 141435Z 32006KT 07/05 A3007 RMK A01 T00730053  RH  087%=      5-min Rain = 0
KLA1 141436Z 32008KT 07/05 A3007 RMK A01 T00730052  RH  087%=      5-min Rain = 0
KLA1 141437Z 32008KT 07/05 A3007 RMK A01 T00730052  RH  086%=      5-min Rain = 0
KLA1 141438Z 32008KT 07/05 A3007 RMK A01 T00740053  RH  086%=      5-min Rain = 0
KLA1 141439Z 32008KT 07/05 A3007 RMK A01 T00740052  RH  086%=      5-min Rain = 0
KLA1 141440Z 32008KT 07/05 A3007 RMK A01 T00740052  RH  086%=      5-min Rain = 0
KLA1 141441Z 32008KT 08/05 A3008 RMK A01 T00750052  RH  086%=      5-min Rain = 0
KLA1 141442Z 31007KT 08/05 A3008 RMK A01 T00750053  RH  086%=      5-min Rain = 0
KLA1 141443Z 32007KT 08/05 A3008 RMK A01 T00750053  RH  086%=      5-min Rain = 0
KLA1 141444Z 31008KT 08/05 A3008 RMK A01 T00760054  RH  086%=      5-min Rain = 0
KLA1 141445Z 31008KT 08/05 A3008 RMK A01 T00760054  RH  086%=      5-min Rain = 0
KLA1 141446Z 31006KT 08/05 A3008 RMK A01 T00760054  RH  086%=      5-min Rain = 0
KLA1 141447Z 32006KT 08/06 A3008 RMK A01 T00760055  RH  087%=      5-min Rain = 0
KLA1 141448Z 32007KT 08/06 A3008 RMK A01 T00760055  RH  086%=      5-min Rain = 0
KLA1 141449Z 32007KT 08/05 A3008 RMK A01 T00760054  RH  086%=      5-min Rain = 0
KLA1 141450Z 31006KT 08/05 A3008 RMK A01 T00760054  RH  086%=      5-min Rain = 0
KLA1 141451Z 31006KT 08/06 A3008 RMK A01 T00770056  RH  087%=      5-min Rain = 0
KLA1 141452Z 31008KT 08/06 A3008 RMK A01 T00770055  RH  086%=      5-min Rain = 0
KLA1 141453Z 31006KT 08/05 A3008 RMK A01 T00770054  RH  086%=      5-min Rain = 0
KLA1 141454Z 32007KT 08/05 A3008 RMK A01 T00770054  RH  086%=      5-min Rain = 0
KLA1 141455Z 31009KT 08/06 A3008 RMK A01 T00780055  RH  085%=      5-min Rain = 0
KLA1 141456Z 31008KT 08/05 A3008 RMK A01 T00780054  RH  085%=      5-min Rain = 0
KLA1 141457Z 31007KT 08/05 A3008 RMK A01 T00780053  RH  084%=      5-min Rain = 0
KLA1 141458Z 31007KT 08/06 A3008 RMK A01 T00780055  RH  085%=      5-min Rain = 0
KLA1 141459Z 30008KT 08/06 A3008 RMK A01 T00790055  RH  085%=      5-min Rain = 0
KLA1 141500Z 30008KT 08/06 A3008 RMK A01 T00790055  RH  085%=      5-min Rain = 0
KLA1 141501Z 31007KT 08/05 A3008 RMK A01 T00790054  RH  084%=      5-min Rain = 0
KLA1 141502Z 31006KT 08/05 A3008 RMK A01 T00790054  RH  084%=      5-min Rain = 0
KLA1 141503Z 30006KT 08/05 A3008 RMK A01 T00790054  RH  085%=      5-min Rain = 0
KLA1 141504Z 33006KT 08/06 A3008 RMK A01 T00780055  RH  085%=      5-min Rain = 0
KLA1 141505Z 32006KT 08/06 A3008 RMK A01 T00790055  RH  085%=      5-min Rain = 0
KLA1 141506Z 32006KT 08/06 A3008 RMK A01 T00790055  RH  085%=      5-min Rain = 0
KLA1 141507Z 32006KT 08/05 A3008 RMK A01 T00790054  RH  084%=      5-min Rain = 0
KLA1 141508Z 32007KT 08/05 A3008 RMK A01 T00780054  RH  085%=      5-min Rain = 0
KLA1 141509Z 31005KT 08/06 A3008 RMK A01 T00780055  RH  085%=      5-min Rain = 0
KLA1 141510Z 31005KT 08/06 A3008 RMK A01 T00790056  RH  085%=      5-min Rain = 0
KLA1 141511Z 31005KT 08/06 A3008 RMK A01 T00790056  RH  085%=      5-min Rain = 0
KLA1 141512Z 32006KT 08/06 A3008 RMK A01 T00780055  RH  085%=      5-min Rain = 0
KLA1 141513Z 33005KT 08/05 A3008 RMK A01 T00780054  RH  085%=      5-min Rain = 0
KLA1 141514Z 33005KT 08/05 A3008 RMK A01 T00780054  RH  085%=      5-min Rain = 0
KLA1 141515Z 32005KT 08/06 A3008 RMK A01 T00780055  RH  085%=      5-min Rain = 0
KLA1 141516Z 31004KT 08/06 A3008 RMK A01 T00780055  RH  085%=      5-min Rain = 0
KLA1 141517Z 31005KT 08/06 A3008 RMK A01 T00780055  RH  085%=      5-min Rain = 0
KLA1 141518Z 30006KT 08/06 A3008 RMK A01 T00790055  RH  085%=      5-min Rain = 0
KLA1 141519Z 30007KT 08/06 A3008 RMK A01 T00790055  RH  085%=      5-min Rain = 0
KLA1 141520Z 31008KT 08/05 A3008 RMK A01 T00790054  RH  084%=      5-min Rain = 0
KLA1 141521Z 31007KT 08/05 A3008 RMK A01 T00790054  RH  084%=      5-min Rain = 0
KLA1 141522Z 31006KT 08/06 A3008 RMK A01 T00790055  RH  084%=      5-min Rain = 0
KLA1 141523Z 31010KT 08/06 A3008 RMK A01 T00800055  RH  084%=      5-min Rain = 0
KLA1 141524Z 30007KT 08/05 A3008 RMK A01 T00800054  RH  084%=      5-min Rain = 0
KLA1 141525Z 31006KT 08/06 A3008 RMK A01 T00800055  RH  084%=      5-min Rain = 0
KLA1 141526Z 31007KT 08/06 A3008 RMK A01 T00810057  RH  085%=      5-min Rain = 0
KLA1 141527Z 31008KT 08/06 A3008 RMK A01 T00810056  RH  084%=      5-min Rain = 0
KLA1 141528Z 31007KT 08/06 A3008 RMK A01 T00810056  RH  084%=      5-min Rain = 0
KLA1 141529Z 30009KT 08/06 A3008 RMK A01 T00820055  RH  083%=      5-min Rain = 0
KLA1 141530Z 31011KT 08/05 A3008 RMK A01 T00820054  RH  083%=      5-min Rain = 0
KLA1 141531Z 31008KT 08/05 A3008 RMK A01 T00820053  RH  082%=      5-min Rain = 0
KLA1 141532Z 32010KT 08/05 A3008 RMK A01 T00820054  RH  082%=      5-min Rain = 0
KLA1 141533Z 31011KT 08/05 A3008 RMK A01 T00820053  RH  082%=      5-min Rain = 0
KLA1 141534Z 32009KT 08/05 A3008 RMK A01 T00820052  RH  082%=      5-min Rain = 0
KLA1 141535Z 31009KT 08/05 A3008 RMK A01 T00820054  RH  082%=      5-min Rain = 0
KLA1 141536Z 30009KT 08/05 A3008 RMK A01 T00820054  RH  082%=      5-min Rain = 0
KLA1 141537Z 30010KT 08/05 A3008 RMK A01 T00830054  RH  082%=      5-min Rain = 0
KLA1 141538Z 31009KT 08/05 A3008 RMK A01 T00830054  RH  082%=      5-min Rain = 0
KLA1 141539Z 31009KT 08/05 A3008 RMK A01 T00830054  RH  082%=      5-min Rain = 0
KLA1 141540Z 31011KT 08/05 A3008 RMK A01 T00840054  RH  081%=      5-min Rain = 0
KLA1 141541Z 31007KT 08/05 A3008 RMK A01 T00840054  RH  081%=      5-min Rain = 0
KLA1 141542Z 31008KT 08/06 A3008 RMK A01 T00840055  RH  082%=      5-min Rain = 0
KLA1 141543Z 33006KT 09/05 A3008 RMK A01 T00850054  RH  081%=      5-min Rain = 0
KLA1 141544Z 32008KT 09/06 A3008 RMK A01 T00850055  RH  081%=      5-min Rain = 0
KLA1 141545Z 31009KT 09/05 A3008 RMK A01 T00850054  RH  081%=      5-min Rain = 0
KLA1 141546Z 32010KT 09/05 A3008 RMK A01 T00850053  RH  081%=      5-min Rain = 0
KLA1 141547Z 32010KT 09/05 A3008 RMK A01 T00850053  RH  080%=      5-min Rain = 0
KLA1 141548Z 32009KT 09/05 A3008 RMK A01 T00850052  RH  080%=      5-min Rain = 0
KLA1 141549Z 31008G13KT 09/05 A3008 RMK A01 T00850053  RH  080%=      5-min Rain = 0
KLA1 141550Z 32009KT 09/05 A3008 RMK A01 T00850052  RH  080%=      5-min Rain = 0
KLA1 141551Z 32012G17KT 09/05 A3008 RMK A01 T00850053  RH  080%=      5-min Rain = 0
KLA1 141552Z 31011KT 09/05 A3008 RMK A01 T00850051  RH  079%=      5-min Rain = 0
KLA1 141553Z 31010G15KT 09/05 A3008 RMK A01 T00850051  RH  079%=      5-min Rain = 0
KLA1 141554Z 31011KT 09/05 A3008 RMK A01 T00860052  RH  079%=      5-min Rain = 0
KLA1 141555Z 32009KT 09/05 A3008 RMK A01 T00860053  RH  080%=      5-min Rain = 0
KLA1 141556Z 31012G18KT 09/05 A3008 RMK A01 T00860053  RH  079%=      5-min Rain = 0
KLA1 141557Z 30016KT 09/05 A3008 RMK A01 T00860052  RH  079%=      5-min Rain = 0
KLA1 141558Z 30013KT 09/05 A3008 RMK A01 T00870052  RH  079%=      5-min Rain = 0
KLA1 141559Z 31014KT 09/05 A3008 RMK A01 T00870053  RH  079%=      5-min Rain = 0
KLA1 141600Z 31013G18KT 09/05 A3008 RMK A01 T00870052  RH  079%=      5-min Rain = 0
KLA1 141601Z 31014KT 09/05 A3008 RMK A01 T00870052  RH  078%=      5-min Rain = 0
KLA1 141602Z 31013KT 09/05 A3008 RMK A01 T00870051  RH  078%=      5-min Rain = 0
KLA1 141603Z 31013KT 09/05 A3008 RMK A01 T00870052  RH  078%=      5-min Rain = 0
KLA1 141604Z 31012KT 09/05 A3008 RMK A01 T00880052  RH  078%=      5-min Rain = 0
KLA1 141605Z 31013KT 09/05 A3008 RMK A01 T00880054  RH  079%=      5-min Rain = 0
KLA1 141606Z 31018G23KT 09/05 A3008 RMK A01 T00890053  RH  078%=      5-min Rain = 0
KLA1 141607Z 31015KT 09/05 A3008 RMK A01 T00880051  RH  078%=      5-min Rain = 0
KLA1 141608Z 30014KT 09/05 A3008 RMK A01 T00890053  RH  078%=      5-min Rain = 0
KLA1 141609Z 31015KT 09/05 A3008 RMK A01 T00890053  RH  078%=      5-min Rain = 0
KLA1 141610Z 31013KT 09/05 A3008 RMK A01 T00890053  RH  078%=      5-min Rain = 0
KLA1 141611Z 31014KT 09/05 A3008 RMK A01 T00890053  RH  078%=      5-min Rain = 0
KLA1 141612Z 32011G16KT 09/05 A3008 RMK A01 T00890053  RH  078%=      5-min Rain = 0
KLA1 141613Z 31012KT 09/05 A3008 RMK A01 T00900053  RH  078%=      5-min Rain = 0
KLA1 141614Z 31016KT 09/05 A3008 RMK A01 T00900053  RH  077%=      5-min Rain = 0
KLA1 141615Z 30014KT 09/05 A3008 RMK A01 T00900052  RH  077%=      5-min Rain = 0
KLA1 141616Z 31014KT 09/05 A3008 RMK A01 T00900052  RH  077%=      5-min Rain = 0
KLA1 141617Z 33011KT 09/05 A3008 RMK A01 T00910054  RH  078%=      5-min Rain = 0
KLA1 141618Z 32012KT 09/05 A3008 RMK A01 T00920054  RH  077%=      5-min Rain = 0
KLA1 141619Z 31012KT 09/05 A3008 RMK A01 T00920054  RH  077%=      5-min Rain = 0
KLA1 141620Z 31013KT 09/05 A3008 RMK A01 T00920054  RH  077%=      5-min Rain = 0
KLA1 141621Z 31010KT 09/05 A3008 RMK A01 T00920054  RH  077%=      5-min Rain = 0
KLA1 141622Z 31009KT 09/06 A3008 RMK A01 T00920056  RH  078%=      5-min Rain = 0
KLA1 141623Z 32009KT 09/06 A3008 RMK A01 T00930056  RH  078%=      5-min Rain = 0
KLA1 141624Z 32007KT 09/06 A3008 RMK A01 T00930057  RH  078%=      5-min Rain = 0
KLA1 141625Z 31007KT 09/06 A3008 RMK A01 T00940058  RH  078%=      5-min Rain = 0
KLA1 141626Z 30009KT 10/06 A3009 RMK A01 T00950058  RH  078%=      5-min Rain = 0
KLA1 141627Z 31014KT 10/06 A3009 RMK A01 T00950056  RH  077%=      5-min Rain = 0
KLA1 141628Z 31014KT 09/05 A3008 RMK A01 T00940054  RH  076%=      5-min Rain = 0
KLA1 141629Z 30015KT 09/05 A3008 RMK A01 T00930052  RH  076%=      5-min Rain = 0
KLA1 141630Z 30015KT 09/05 A3008 RMK A01 T00930053  RH  076%=      5-min Rain = 0
KLA1 141631Z 31012KT 09/05 A3009 RMK A01 T00930053  RH  076%=      5-min Rain = 0
KLA1 141632Z 31013G18KT 09/05 A3009 RMK A01 T00930053  RH  076%=      5-min Rain = 0
KLA1 141633Z 30011KT 09/05 A3009 RMK A01 T00930052  RH  076%=      5-min Rain = 0
KLA1 141634Z 31011KT 09/05 A3009 RMK A01 T00930054  RH  077%=      5-min Rain = 0
KLA1 141635Z 31011KT 09/05 A3009 RMK A01 T00930052  RH  075%=      5-min Rain = 0
KLA1 141636Z 30013KT 09/05 A3009 RMK A01 T00930052  RH  076%=      5-min Rain = 0
KLA1 141637Z 30010KT 09/05 A3009 RMK A01 T00920051  RH  075%=      5-min Rain = 0
KLA1 141638Z 30009KT 09/05 A3009 RMK A01 T00920054  RH  077%=      5-min Rain = 0
KLA1 141639Z 30015KT 09/05 A3009 RMK A01 T00920052  RH  076%=      5-min Rain = 0
KLA1 141640Z 30014KT 09/05 A3009 RMK A01 T00920051  RH  075%=      5-min Rain = 0
KLA1 141641Z 30012G18KT 09/05 A3009 RMK A01 T00910051  RH  076%=      5-min Rain = 0
KLA1 141642Z 31012KT 09/05 A3009 RMK A01 T00910051  RH  076%=      5-min Rain = 0
KLA1 141643Z 31016KT 09/05 A3009 RMK A01 T00910051  RH  076%=      5-min Rain = 0
KLA1 141644Z 31014KT 09/05 A3009 RMK A01 T00910050  RH  076%=      5-min Rain = 0
KLA1 141645Z 31009G14KT 09/05 A3009 RMK A01 T00900050  RH  076%=      5-min Rain = 0
KLA1 141646Z 31014KT 09/05 A3009 RMK A01 T00900051  RH  077%=      5-min Rain = 0
KLA1 141647Z 31013KT 09/05 A3009 RMK A01 T00900050  RH  076%=      5-min Rain = 0
KLA1 141648Z 32012KT 09/05 A3009 RMK A01 T00900050  RH  076%=      5-min Rain = 0
KLA1 141649Z 31014KT 09/05 A3009 RMK A01 T00900050  RH  076%=      5-min Rain = 0
KLA1 141650Z 32015G20KT 09/05 A3009 RMK A01 T00900049  RH  076%=      5-min Rain = 0
KLA1 141651Z 31015KT 09/05 A3009 RMK A01 T00900049  RH  075%=      5-min Rain = 0
KLA1 141652Z 32013G19KT 09/05 A3009 RMK A01 T00900048  RH  075%=      5-min Rain = 0
KLA1 141653Z 31012G18KT 09/05 A3009 RMK A01 T00900048  RH  075%=      5-min Rain = 0
KLA1 141654Z 32010KT 09/05 A3009 RMK A01 T00900049  RH  075%=      5-min Rain = 0
KLA1 141655Z 31012KT 09/05 A3009 RMK A01 T00900049  RH  076%=      5-min Rain = 0
KLA1 141656Z 31011G17KT 09/05 A301 RMK A01 T00900049  RH  076%=      5-min Rain = 0
KLA1 141657Z 31016G22KT 09/05 A301 RMK A01 T00900049  RH  076%=      5-min Rain = 0
KLA1 141658Z 30014KT 09/05 A301 RMK A01 T00900047  RH  074%=      5-min Rain = 0
KLA1 141659Z 30012KT 09/05 A301 RMK A01 T00900047  RH  075%=      5-min Rain = 0
KLA1 141700Z 31010KT 09/05 A301 RMK A01 T00900049  RH  076%=      5-min Rain = 0
KLA1 141701Z 32009G15KT 09/05 A301 RMK A01 T00900050  RH  076%=      5-min Rain = 0
KLA1 141702Z 32009KT 09/05 A301 RMK A01 T00900049  RH  076%=      5-min Rain = 0
KLA1 141703Z 31013KT 09/05 A301 RMK A01 T00900048  RH  075%=      5-min Rain = 0
KLA1 141704Z 32012KT 09/05 A301 RMK A01 T00890048  RH  075%=      5-min Rain = 0
KLA1 141705Z 32011KT 09/05 A301 RMK A01 T00890048  RH  075%=      5-min Rain = 0
KLA1 141706Z 32013KT 09/05 A301 RMK A01 T00900047  RH  074%=      5-min Rain = 0
KLA1 141707Z 31011KT 09/05 A301 RMK A01 T00890045  RH  074%=      5-min Rain = 0
KLA1 141708Z 31011G16KT 09/05 A301 RMK A01 T00890046  RH  074%=      5-min Rain = 0
KLA1 141709Z 31011KT 09/05 A301 RMK A01 T00900047  RH  075%=      5-min Rain = 0
KLA1 141710Z 31008KT 09/05 A301 RMK A01 T00900049  RH  075%=      5-min Rain = 0
KLA1 141711Z 31011KT 09/05 A301 RMK A01 T00910049  RH  075%=      5-min Rain = 0
KLA1 141712Z 31011KT 09/05 A301 RMK A01 T00910048  RH  074%=      5-min Rain = 0
KLA1 141713Z 31011KT 09/05 A301 RMK A01 T00910047  RH  074%=      5-min Rain = 0
KLA1 141714Z 33008G14KT 09/05 A301 RMK A01 T00910047  RH  074%=      5-min Rain = 0
KLA1 141715Z 32009KT 09/05 A301 RMK A01 T00910048  RH  075%=      5-min Rain = 0
KLA1 141716Z 32010KT 09/05 A301 RMK A01 T00910047  RH  074%=      5-min Rain = 0
KLA1 141717Z 31008KT 09/05 A301 RMK A01 T00910047  RH  074%=      5-min Rain = 0
KLA1 141718Z 31008KT 09/05 A301 RMK A01 T00910048  RH  074%=      5-min Rain = 0
KLA1 141719Z 33011G16KT 09/05 A301 RMK A01 T00910047  RH  074%=      5-min Rain = 0
KLA1 141720Z 32010KT 09/04 A301 RMK A01 T00910043  RH  072%=      5-min Rain = 0
KLA1 141721Z 32010G15KT 09/04 A301 RMK A01 T00900041  RH  071%=      5-min Rain = 0
KLA1 141722Z 33012KT 09/04 A301 RMK A01 T00900041  RH  071%=      5-min Rain = 0
KLA1 141723Z 32010KT 09/04 A301 RMK A01 T00900040  RH  071%=      5-min Rain = 0
KLA1 141724Z 33010KT 09/04 A301 RMK A01 T00900041  RH  071%=      5-min Rain = 0
KLA1 141725Z 33010KT 09/04 A301 RMK A01 T00900041  RH  071%=      5-min Rain = 0
KLA1 141726Z 33012G17KT 09/04 A301 RMK A01 T00900040  RH  071%=      5-min Rain = 0
KLA1 141727Z 33010KT 09/04 A301 RMK A01 T00900040  RH  071%=      5-min Rain = 0
KLA1 141728Z 32009KT 09/04 A301 RMK A01 T00900040  RH  071%=      5-min Rain = 0
KLA1 141729Z 33010KT 09/04 A301 RMK A01 T00890041  RH  072%=      5-min Rain = 0
KLA1 141730Z 33009G14KT 09/04 A301 RMK A01 T00890041  RH  072%=      5-min Rain = 0
KLA1 141731Z 31010KT 09/04 A301 RMK A01 T00900041  RH  071%=      5-min Rain = 0
KLA1 141732Z 32013KT 09/04 A301 RMK A01 T00900041  RH  071%=      5-min Rain = 0
KLA1 141733Z 31012KT 09/04 A301 RMK A01 T00890040  RH  071%=      5-min Rain = 0
KLA1 141734Z 32009KT 09/04 A301 RMK A01 T00890041  RH  072%=      5-min Rain = 0
KLA1 141735Z 32010KT 09/04 A301 RMK A01 T00900042  RH  072%=      5-min Rain = 0
KLA1 141736Z 33007KT 09/04 A301 RMK A01 T00900042  RH  072%=      5-min Rain = 0
KLA1 141737Z 34006KT 09/04 A301 RMK A01 T00900043  RH  072%=      5-min Rain = 0
KLA1 141738Z 32011KT 09/04 A301 RMK A01 T00910043  RH  072%=      5-min Rain = 0
KLA1 141739Z 34008KT 09/04 A301 RMK A01 T00910042  RH  071%=      5-min Rain = 0
KLA1 141740Z 33007KT 09/04 A301 RMK A01 T00920044  RH  072%=      5-min Rain = 0
KLA1 141741Z 32008KT 09/05 A3009 RMK A01 T00930045  RH  072%=      5-min Rain = 0
KLA1 141742Z 32011KT 09/04 A3009 RMK A01 T00930044  RH  071%=      5-min Rain = 0
KLA1 141743Z 33010KT 09/04 A3009 RMK A01 T00940043  RH  070%=      5-min Rain = 0
KLA1 141744Z 32009KT 09/04 A3009 RMK A01 T00940044  RH  071%=      5-min Rain = 0
KLA1 141745Z 31011KT 10/05 A3009 RMK A01 T00950045  RH  071%=      5-min Rain = 0
KLA1 141746Z 32010KT 10/05 A3009 RMK A01 T00950045  RH  071%=      5-min Rain = 0
KLA1 141747Z 33008KT 10/05 A3009 RMK A01 T00960047  RH  071%=      5-min Rain = 0
KLA1 141748Z 33010G16KT 10/05 A3009 RMK A01 T00970046  RH  070%=      5-min Rain = 0
KLA1 141749Z 33010KT 10/05 A3009 RMK A01 T00980045  RH  070%=      5-min Rain = 0
KLA1 141750Z 33010KT 10/04 A3009 RMK A01 T00980044  RH  069%=      5-min Rain = 0
KLA1 141751Z 32009KT 10/05 A3009 RMK A01 T00990046  RH  070%=      5-min Rain = 0
KLA1 141752Z 34009G16KT 10/05 A3009 RMK A01 T01000047  RH  069%=      5-min Rain = 0
KLA1 141753Z 32012KT 10/05 A3009 RMK A01 T01020046  RH  068%=      5-min Rain = 0
KLA1 141754Z 32014KT 10/05 A3009 RMK A01 T01030047  RH  068%=      5-min Rain = 0
KLA1 141755Z 32013KT 10/04 A3009 RMK A01 T01040044  RH  067%=      5-min Rain = 0
KLA1 141756Z 31012G17KT 10/05 A3009 RMK A01 T01040047  RH  068%=      5-min Rain = 0
KLA1 141757Z 32013KT 11/05 A3009 RMK A01 T01060047  RH  067%=      5-min Rain = 0
KLA1 141758Z 33010G16KT 11/05 A3009 RMK A01 T01060045  RH  066%=      5-min Rain = 0
KLA1 141759Z 32011KT 11/05 A3009 RMK A01 T01060047  RH  067%=      5-min Rain = 0
KLA1 141800Z 32013KT 11/05 A3009 RMK A01 T01070046  RH  066%=      5-min Rain = 0
KLA1 141801Z 32013G18KT 11/05 A3009 RMK A01 T01070045  RH  066%=      5-min Rain = 0
KLA1 141802Z 33015G21KT 11/05 A3009 RMK A01 T01060046  RH  066%=      5-min Rain = 0
KLA1 141803Z 33012KT 11/04 A3009 RMK A01 T01050044  RH  066%=      5-min Rain = 0
KLA1 141804Z 33010KT 10/04 A3009 RMK A01 T01040044  RH  066%=      5-min Rain = 0
KLA1 141805Z 32011KT 10/05 A3009 RMK A01 T01030045  RH  067%=      5-min Rain = 0
KLA1 141806Z 33010KT 10/05 A3009 RMK A01 T01030045  RH  067%=      5-min Rain = 0
KLA1 141807Z 33009KT 10/05 A3008 RMK A01 T01030045  RH  067%=      5-min Rain = 0
KLA1 141808Z 33010KT 10/05 A3008 RMK A01 T01040046  RH  067%=      5-min Rain = 0
KLA1 141809Z 33012KT 10/04 A3008 RMK A01 T01040044  RH  066%=      5-min Rain = 0
KLA1 141810Z 33013KT 10/04 A3008 RMK A01 T01030042  RH  066%=      5-min Rain = 0
KLA1 141811Z 33012KT 10/04 A3008 RMK A01 T01020042  RH  066%=      5-min Rain = 0
KLA1 141812Z 33010KT 10/04 A3008 RMK A01 T01010043  RH  067%=      5-min Rain = 0
KLA1 141813Z 34008KT 10/05 A3008 RMK A01 T01020046  RH  068%=      5-min Rain = 0
KLA1 141814Z 33009KT 10/05 A3008 RMK A01 T01030045  RH  067%=      5-min Rain = 0
KLA1 141815Z 34009KT 10/04 A3008 RMK A01 T01040043  RH  066%=      5-min Rain = 0
KLA1 141816Z 34011KT 10/04 A3008 RMK A01 T01040042  RH  066%=      5-min Rain = 0
KLA1 141817Z 34012KT 10/04 A3008 RMK A01 T01030042  RH  066%=      5-min Rain = 0
KLA1 141818Z 33011G16KT 10/04 A3008 RMK A01 T01020041  RH  066%=      5-min Rain = 0
KLA1 141819Z 32012G17KT 10/04 A3008 RMK A01 T01020040  RH  066%=      5-min Rain = 0
KLA1 141820Z 32013KT 10/04 A3008 RMK A01 T01020041  RH  066%=      5-min Rain = 0
KLA1 141821Z 33011KT 10/04 A3008 RMK A01 T01020041  RH  066%=      5-min Rain = 0
KLA1 141822Z 33011KT 10/04 A3008 RMK A01 T01030041  RH  066%=      5-min Rain = 0
KLA1 141823Z 32014KT 10/04 A3008 RMK A01 T01030041  RH  065%=      5-min Rain = 0
KLA1 141824Z 34010KT 10/04 A3008 RMK A01 T01040041  RH  065%=      5-min Rain = 0
KLA1 141825Z 34009G14KT 11/04 A3008 RMK A01 T01050043  RH  065%=      5-min Rain = 0
KLA1 141826Z 34010KT 11/04 A3008 RMK A01 T01070043  RH  064%=      5-min Rain = 0
KLA1 141827Z 32010G15KT 11/04 A3008 RMK A01 T01080040  RH  063%=      5-min Rain = 0
KLA1 141828Z 32009G17KT 11/04 A3008 RMK A01 T01080041  RH  063%=      5-min Rain = 0
KLA1 141829Z 33011KT 11/04 A3008 RMK A01 T01080040  RH  063%=      5-min Rain = 0
KLA1 141830Z 32011KT 11/04 A3008 RMK A01 T01080042  RH  064%=      5-min Rain = 0
KLA1 141831Z 33009KT 11/04 A3008 RMK A01 T01090041  RH  063%=      5-min Rain = 0
KLA1 141832Z 31009KT 11/04 A3008 RMK A01 T01090041  RH  063%=      5-min Rain = 0
KLA1 141833Z 31011KT 11/04 A3008 RMK A01 T01100042  RH  063%=      5-min Rain = 0
KLA1 141834Z 32009KT 11/04 A3008 RMK A01 T01110043  RH  063%=      5-min Rain = 0
KLA1 141835Z 31010KT 11/05 A3007 RMK A01 T01140046  RH  063%=      5-min Rain = 0
KLA1 141836Z 31010G15KT 12/05 A3007 RMK A01 T01160045  RH  062%=      5-min Rain = 0
KLA1 141837Z 30011KT 12/05 A3007 RMK A01 T01170045  RH  062%=      5-min Rain = 0
KLA1 141838Z 31010KT 12/05 A3007 RMK A01 T01170045  RH  061%=      5-min Rain = 0
KLA1 141839Z 33011KT 12/05 A3007 RMK A01 T01170045  RH  061%=      5-min Rain = 0
KLA1 141840Z 32010G15KT 12/04 A3007 RMK A01 T01170041  RH  060%=      5-min Rain = 0
KLA1 141841Z 32014KT 12/04 A3007 RMK A01 T01160041  RH  060%=      5-min Rain = 0
KLA1 141842Z 33013G18KT 12/04 A3007 RMK A01 T01160040  RH  059%=      5-min Rain = 0
KLA1 141843Z 31016KT 12/04 A3007 RMK A01 T01180041  RH  059%=      5-min Rain = 0
KLA1 141844Z 31014G21KT 12/04 A3007 RMK A01 T01180040  RH  059%=      5-min Rain = 0
KLA1 141845Z 32016KT 12/04 A3007 RMK A01 T01180041  RH  059%=      5-min Rain = 0
KLA1 141846Z 32014KT 12/04 A3007 RMK A01 T01190040  RH  058%=      5-min Rain = 0
KLA1 141847Z 32012KT 12/04 A3007 RMK A01 T01210043  RH  059%=      5-min Rain = 0
KLA1 141848Z 32011G16KT 12/05 A3007 RMK A01 T01230047  RH  060%=      5-min Rain = 0
KLA1 141849Z 32012G19KT 12/05 A3007 RMK A01 T01240045  RH  058%=      5-min Rain = 0
KLA1 141850Z 30015KT 13/05 A3007 RMK A01 T01250046  RH  059%=      5-min Rain = 0
KLA1 141851Z 31014KT 12/04 A3007 RMK A01 T01230043  RH  058%=      5-min Rain = 0
KLA1 141852Z 30012KT 12/04 A3007 RMK A01 T01190041  RH  059%=      5-min Rain = 0
KLA1 141853Z 31013KT 12/05 A3008 RMK A01 T01180045  RH  061%=      5-min Rain = 0
KLA1 141854Z 32013G18KT 12/04 A3007 RMK A01 T01180043  RH  060%=      5-min Rain = 0
KLA1 141855Z 33014KT 12/04 A3008 RMK A01 T01170041  RH  060%=      5-min Rain = 0
KLA1 141856Z 33014KT 12/04 A3007 RMK A01 T01160042  RH  061%=      5-min Rain = 0
KLA1 141857Z 32013G20KT 12/04 A3007 RMK A01 T01150042  RH  061%=      5-min Rain = 0
KLA1 141858Z 33012G18KT 12/04 A3007 RMK A01 T01150043  RH  061%=      5-min Rain = 0
KLA1 141859Z 31013KT 12/04 A3007 RMK A01 T01160044  RH  061%=      5-min Rain = 0
KLA1 141900Z 31014G21KT 12/05 A3007 RMK A01 T01160045  RH  062%=      5-min Rain = 0
KLA1 141901Z 31016KT 12/04 A3007 RMK A01 T01160044  RH  061%=      5-min Rain = 0
KLA1 141902Z 30014KT 12/04 A3007 RMK A01 T01160044  RH  061%=      5-min Rain = 0
KLA1 141903Z 30014KT 12/05 A3007 RMK A01 T01150045  RH  062%=      5-min Rain = 0
KLA1 141904Z 30015KT 12/05 A3007 RMK A01 T01150046  RH  063%=      5-min Rain = 0
KLA1 141905Z 30015KT 12/04 A3007 RMK A01 T01150044  RH  062%=      5-min Rain = 0
KLA1 141906Z 32013KT 12/05 A3007 RMK A01 T01150045  RH  062%=      5-min Rain = 0
KLA1 141907Z 32009KT 12/04 A3007 RMK A01 T01150044  RH  062%=      5-min Rain = 0
KLA1 141908Z 32010KT 12/05 A3007 RMK A01 T01150045  RH  062%=      5-min Rain = 0
KLA1 141909Z 32011KT 12/05 A3007 RMK A01 T01160046  RH  062%=      5-min Rain = 0
KLA1 141910Z 32010KT 12/04 A3007 RMK A01 T01170044  RH  061%=      5-min Rain = 0
KLA1 141911Z 33011G17KT 12/04 A3007 RMK A01 T01170044  RH  061%=      5-min Rain = 0
KLA1 141912Z 33012KT 12/04 A3007 RMK A01 T01170044  RH  061%=      5-min Rain = 0
KLA1 141913Z 33011KT 12/04 A3007 RMK A01 T01170044  RH  061%=      5-min Rain = 0
KLA1 141914Z 30012KT 12/05 A3007 RMK A01 T01170046  RH  061%=      5-min Rain = 0
KLA1 141915Z 32011KT 12/05 A3007 RMK A01 T01180046  RH  061%=      5-min Rain = 0
KLA1 141916Z 31011KT 12/05 A3007 RMK A01 T01180045  RH  061%=      5-min Rain = 0
KLA1 141917Z 31012KT 12/05 A3007 RMK A01 T01190046  RH  061%=      5-min Rain = 0
KLA1 141918Z 32010G15KT 12/05 A3007 RMK A01 T01200046  RH  061%=      5-min Rain = 0
KLA1 141919Z 32014KT 12/05 A3007 RMK A01 T01200046  RH  060%=      5-min Rain = 0
KLA1 141920Z 31011KT 12/04 A3007 RMK A01 T01210042  RH  059%=      5-min Rain = 0
KLA1 141921Z 30009KT 12/04 A3007 RMK A01 T01210043  RH  059%=      5-min Rain = 0
KLA1 141922Z 30012KT 12/05 A3007 RMK A01 T01220047  RH  060%=      5-min Rain = 0
KLA1 141923Z 29015KT 12/05 A3007 RMK A01 T01230047  RH  060%=      5-min Rain = 0
KLA1 141924Z 30015KT 12/04 A3007 RMK A01 T01240043  RH  057%=      5-min Rain = 0
KLA1 141925Z 31012KT 12/04 A3007 RMK A01 T01240043  RH  058%=      5-min Rain = 0
KLA1 141926Z 30011KT 12/04 A3007 RMK A01 T01230044  RH  058%=      5-min Rain = 0
KLA1 141927Z 29012KT 12/04 A3006 RMK A01 T01240043  RH  058%=      5-min Rain = 0
KLA1 141928Z 30015G20KT 12/04 A3007 RMK A01 T01240044  RH  058%=      5-min Rain = 0
KLA1 141929Z 30018KT 12/04 A3006 RMK A01 T01240041  RH  057%=      5-min Rain = 0
KLA1 141930Z 30017KT 12/04 A3006 RMK A01 T01230040  RH  057%=      5-min Rain = 0
KLA1 141931Z 29017KT 12/04 A3006 RMK A01 T01230041  RH  058%=      5-min Rain = 0
KLA1 141932Z 31016KT 12/04 A3006 RMK A01 T01220040  RH  057%=      5-min Rain = 0
KLA1 141933Z 32016G22KT 12/04 A3006 RMK A01 T01210040  RH  057%=      5-min Rain = 0
KLA1 141934Z 31016KT 12/04 A3006 RMK A01 T01210039  RH  057%=      5-min Rain = 0
KLA1 141935Z 30018KT 12/04 A3006 RMK A01 T01210040  RH  058%=      5-min Rain = 0
KLA1 141936Z 31019KT 12/04 A3006 RMK A01 T01210038  RH  057%=      5-min Rain = 0
KLA1 141937Z 30021KT 12/04 A3006 RMK A01 T01200039  RH  058%=      5-min Rain = 0
KLA1 141938Z 30016G21KT 12/04 A3006 RMK A01 T01200037  RH  057%=      5-min Rain = 0
KLA1 141939Z 30015KT 12/04 A3006 RMK A01 T01200041  RH  059%=      5-min Rain = 0
KLA1 141940Z 30017G23KT 12/04 A3006 RMK A01 T01210042  RH  059%=      5-min Rain = 0
KLA1 141941Z 30016KT 12/04 A3006 RMK A01 T01210041  RH  058%=      5-min Rain = 0
KLA1 141942Z 31016G21KT 12/04 A3006 RMK A01 T01210041  RH  058%=      5-min Rain = 0
KLA1 141943Z 31017G22KT 12/04 A3006 RMK A01 T01210039  RH  057%=      5-min Rain = 0
KLA1 141944Z 31016G21KT 12/04 A3006 RMK A01 T01200039  RH  057%=      5-min Rain = 0
KLA1 141945Z 31015G20KT 12/04 A3006 RMK A01 T01200039  RH  058%=      5-min Rain = 0
KLA1 141946Z 30015KT 12/04 A3006 RMK A01 T01200041  RH  058%=      5-min Rain = 0
KLA1 141947Z 31017KT 12/04 A3006 RMK A01 T01190040  RH  058%=      5-min Rain = 0
KLA1 141948Z 31013G19KT 12/04 A3006 RMK A01 T01190041  RH  059%=      5-min Rain = 0
KLA1 141949Z 31016G21KT 12/04 A3006 RMK A01 T01200043  RH  059%=      5-min Rain = 0
KLA1 141950Z 30016KT 12/04 A3006 RMK A01 T01210042  RH  059%=      5-min Rain = 0
KLA1 141951Z 31016G22KT 12/04 A3005 RMK A01 T01210041  RH  058%=      5-min Rain = 0
KLA1 141952Z 31016KT 12/04 A3006 RMK A01 T01200040  RH  058%=      5-min Rain = 0
KLA1 141953Z 31016KT 12/04 A3006 RMK A01 T01190040  RH  058%=      5-min Rain = 0
KLA1 141954Z 31016KT 12/04 A3005 RMK A01 T01190041  RH  059%=      5-min Rain = 0
KLA1 141955Z 31014KT 12/04 A3005 RMK A01 T01200041  RH  059%=      5-min Rain = 0
KLA1 141956Z 31013KT 12/04 A3005 RMK A01 T01200041  RH  058%=      5-min Rain = 0
KLA1 141957Z 31013KT 12/04 A3005 RMK A01 T01200043  RH  059%=      5-min Rain = 0
KLA1 141958Z 30013KT 12/04 A3005 RMK A01 T01200043  RH  059%=      5-min Rain = 0
KLA1 141959Z 29012KT 12/04 A3005 RMK A01 T01200044  RH  060%=      5-min Rain = 0
KLA1 142000Z 30014G19KT 12/05 A3005 RMK A01 T01200045  RH  060%=      5-min Rain = 0
KLA1 142001Z 30012KT 12/04 A3005 RMK A01 T01200044  RH  060%=      5-min Rain = 0
KLA1 142002Z 29013KT 12/05 A3005 RMK A01 T01210046  RH  060%=      5-min Rain = 0
KLA1 142003Z 30015KT 12/05 A3005 RMK A01 T01210045  RH  060%=      5-min Rain = 0
KLA1 142004Z 30011G16KT 12/05 A3005 RMK A01 T01210046  RH  060%=      5-min Rain = 0
KLA1 142005Z 29014G21KT 12/05 A3005 RMK A01 T01210048  RH  061%=      5-min Rain = 0
KLA1 142006Z 31015KT 12/04 A3005 RMK A01 T01210042  RH  058%=      5-min Rain = 0
KLA1 142007Z 30016KT 12/04 A3005 RMK A01 T01200042  RH  059%=      5-min Rain = 0
KLA1 142008Z 31014KT 12/04 A3005 RMK A01 T01190043  RH  060%=      5-min Rain = 0
KLA1 142009Z 31016KT 12/04 A3005 RMK A01 T01190040  RH  058%=      5-min Rain = 0
KLA1 142010Z 30015KT 12/04 A3005 RMK A01 T01180039  RH  058%=      5-min Rain = 0
KLA1 142011Z 30013KT 12/04 A3005 RMK A01 T01180043  RH  060%=      5-min Rain = 0
KLA1 142012Z 31016KT 12/04 A3005 RMK A01 T01180042  RH  060%=      5-min Rain = 0
KLA1 142013Z 30014KT 12/04 A3005 RMK A01 T01180043  RH  060%=      5-min Rain = 0
KLA1 142014Z 30012G18KT 12/04 A3005 RMK A01 T01180044  RH  060%=      5-min Rain = 0
KLA1 142015Z 30015KT 12/04 A3005 RMK A01 T01180043  RH  060%=      5-min Rain = 0
KLA1 142016Z 30013KT 12/04 A3005 RMK A01 T01180042  RH  060%=      5-min Rain = 0
KLA1 142017Z 30016KT 12/04 A3006 RMK A01 T01170042  RH  060%=      5-min Rain = 0
KLA1 142018Z 30015KT 12/04 A3005 RMK A01 T01170041  RH  060%=      5-min Rain = 0
KLA1 142019Z 31014KT 12/04 A3005 RMK A01 T01160042  RH  060%=      5-min Rain = 0
KLA1 142020Z 32015KT 12/04 A3005 RMK A01 T01160042  RH  061%=      5-min Rain = 0
KLA1 142021Z 31016KT 12/04 A3005 RMK A01 T01160042  RH  060%=      5-min Rain = 0
KLA1 142022Z 31012KT 12/04 A3006 RMK A01 T01150041  RH  060%=      5-min Rain = 0
KLA1 142023Z 30015KT 12/04 A3006 RMK A01 T01150042  RH  061%=      5-min Rain = 0
KLA1 142024Z 31010KT 12/04 A3006 RMK A01 T01150043  RH  061%=      5-min Rain = 0
KLA1 142025Z 31013KT 12/05 A3006 RMK A01 T01150045  RH  062%=      5-min Rain = 0
KLA1 142026Z 31016KT 11/04 A3006 RMK A01 T01140043  RH  061%=      5-min Rain = 0
KLA1 142027Z 30017G23KT 11/04 A3006 RMK A01 T01140043  RH  062%=      5-min Rain = 0
KLA1 142028Z 30017KT 11/04 A3006 RMK A01 T01130042  RH  062%=      5-min Rain = 0
KLA1 142029Z 30015KT 11/04 A3005 RMK A01 T01130041  RH  061%=      5-min Rain = 0
KLA1 142030Z 29016KT 11/04 A3005 RMK A01 T01120042  RH  062%=      5-min Rain = 0
KLA1 142031Z 30018KT 11/04 A3006 RMK A01 T01120042  RH  062%=      5-min Rain = 0
KLA1 142032Z 30017KT 11/04 A3005 RMK A01 T01120043  RH  063%=      5-min Rain = 0
KLA1 142033Z 30014KT 11/04 A3005 RMK A01 T01110041  RH  062%=      5-min Rain = 0
KLA1 142034Z 30011KT 11/04 A3006 RMK A01 T01110043  RH  063%=      5-min Rain = 0
KLA1 142035Z 31011KT 11/04 A3005 RMK A01 T01110044  RH  063%=      5-min Rain = 0
KLA1 142036Z 30012KT 11/04 A3006 RMK A01 T01110044  RH  063%=      5-min Rain = 0
KLA1 142037Z 30015KT 11/04 A3005 RMK A01 T01110044  RH  063%=      5-min Rain = 0
KLA1 142038Z 31013KT 11/04 A3005 RMK A01 T01110042  RH  062%=      5-min Rain = 0
KLA1 142039Z 30012KT 11/04 A3005 RMK A01 T01110043  RH  063%=      5-min Rain = 0
KLA1 142040Z 30012KT 11/04 A3005 RMK A01 T01110043  RH  063%=      5-min Rain = 0
KLA1 142041Z 31012G17KT 11/04 A3005 RMK A01 T01110043  RH  063%=      5-min Rain = 0
KLA1 142042Z 31011KT 11/04 A3005 RMK A01 T01110043  RH  063%=      5-min Rain = 0
KLA1 142043Z 30013KT 11/04 A3005 RMK A01 T01110044  RH  063%=      5-min Rain = 0
KLA1 142044Z 31009KT 11/04 A3005 RMK A01 T01120043  RH  063%=      5-min Rain = 0
KLA1 142045Z 30009KT 11/05 A3005 RMK A01 T01120045  RH  063%=      5-min Rain = 0
KLA1 142046Z 29011KT 11/05 A3005 RMK A01 T01130046  RH  064%=      5-min Rain = 0
KLA1 142047Z 31016KT 11/05 A3005 RMK A01 T01130045  RH  063%=      5-min Rain = 0
KLA1 142048Z 30015KT 11/04 A3005 RMK A01 T01130042  RH  062%=      5-min Rain = 0
KLA1 142049Z 30016KT 11/04 A3005 RMK A01 T01120042  RH  062%=      5-min Rain = 0
KLA1 142050Z 30014KT 11/04 A3005 RMK A01 T01120042  RH  062%=      5-min Rain = 0
KLA1 142051Z 30014KT 11/04 A3005 RMK A01 T01120044  RH  063%=      5-min Rain = 0
KLA1 142052Z 30012KT 11/04 A3005 RMK A01 T01130044  RH  063%=      5-min Rain = 0
KLA1 142053Z 31012KT 11/04 A3005 RMK A01 T01140044  RH  062%=      5-min Rain = 0
KLA1 142054Z 30014KT 11/05 A3005 RMK A01 T01140045  RH  062%=      5-min Rain = 0
KLA1 142055Z 30016KT 12/04 A3005 RMK A01 T01150043  RH  061%=      5-min Rain = 0
KLA1 142056Z 29014KT 11/04 A3005 RMK A01 T01140043  RH  062%=      5-min Rain = 0
KLA1 142057Z 29015KT 11/04 A3005 RMK A01 T01130043  RH  062%=      5-min Rain = 0
KLA1 142058Z 30013KT 11/04 A3005 RMK A01 T01140043  RH  062%=      5-min Rain = 0
KLA1 142059Z 30011KT 11/05 A3005 RMK A01 T01140046  RH  063%=      5-min Rain = 0
KLA1 142100Z 30014KT 11/05 A3005 RMK A01 T01140045  RH  062%=      5-min Rain = 0
KLA1 142101Z 31015KT 11/04 A3005 RMK A01 T01140044  RH  062%=      5-min Rain = 0
KLA1 142102Z 30012KT 11/04 A3005 RMK A01 T01130044  RH  062%=      5-min Rain = 0
KLA1 142103Z 30011KT 11/05 A3005 RMK A01 T01130045  RH  063%=      5-min Rain = 0
KLA1 142104Z 31011G17KT 11/05 A3005 RMK A01 T01130046  RH  063%=      5-min Rain = 0
KLA1 142105Z 31015KT 11/05 A3005 RMK A01 T01130045  RH  063%=      5-min Rain = 0
KLA1 142106Z 30014KT 11/04 A3005 RMK A01 T01120043  RH  062%=      5-min Rain = 0
KLA1 142107Z 32010G18KT 11/04 A3005 RMK A01 T01120044  RH  063%=      5-min Rain = 0
KLA1 142108Z 30014G19KT 11/04 A3005 RMK A01 T01120044  RH  063%=      5-min Rain = 0
KLA1 142109Z 31012G17KT 11/04 A3005 RMK A01 T01110043  RH  063%=      5-min Rain = 0
KLA1 142110Z 31013G18KT 11/04 A3005 RMK A01 T01110043  RH  063%=      5-min Rain = 0
KLA1 142111Z 31013G19KT 11/05 A3005 RMK A01 T01100045  RH  064%=      5-min Rain = 0
KLA1 142112Z 31017KT 11/04 A3005 RMK A01 T01100044  RH  064%=      5-min Rain = 0
KLA1 142113Z 31012KT 11/04 A3005 RMK A01 T01100043  RH  064%=      5-min Rain = 0
KLA1 142114Z 32011G16KT 11/04 A3005 RMK A01 T01100044  RH  064%=      5-min Rain = 0
KLA1 142115Z 30013KT 11/04 A3005 RMK A01 T01100044  RH  064%=      5-min Rain = 0
KLA1 142116Z 31014KT 11/04 A3005 RMK A01 T01100044  RH  064%=      5-min Rain = 0
KLA1 142117Z 31012KT 11/04 A3005 RMK A01 T01100044  RH  064%=      5-min Rain = 0
KLA1 142118Z 31015KT 11/04 A3005 RMK A01 T01100042  RH  063%=      5-min Rain = 0
KLA1 142119Z 32012G17KT 11/04 A3005 RMK A01 T01110042  RH  062%=      5-min Rain = 0
KLA1 142120Z 33015G20KT 11/04 A3005 RMK A01 T01120041  RH  062%=      5-min Rain = 0
KLA1 142121Z 32016KT 11/04 A3005 RMK A01 T01120040  RH  061%=      5-min Rain = 0
KLA1 142122Z 32016G21KT 11/04 A3005 RMK A01 T01130036  RH  059%=      5-min Rain = 0
KLA1 142123Z 32012G18KT 11/03 A3005 RMK A01 T01120034  RH  059%=      5-min Rain = 0
KLA1 142124Z 32012KT 11/04 A3005 RMK A01 T01120036  RH  059%=      5-min Rain = 0
KLA1 142125Z 32011KT 11/04 A3005 RMK A01 T01130038  RH  060%=      5-min Rain = 0
KLA1 142126Z 32014G19KT 11/04 A3005 RMK A01 T01140038  RH  059%=      5-min Rain = 0
KLA1 142127Z 32014KT 11/04 A3005 RMK A01 T01140036  RH  059%=      5-min Rain = 0
KLA1 142128Z 31014KT 11/04 A3005 RMK A01 T01140037  RH  059%=      5-min Rain = 0
KLA1 142129Z 30015KT 11/04 A3005 RMK A01 T01140037  RH  059%=      5-min Rain = 0
KLA1 142130Z 31012G17KT 11/04 A3005 RMK A01 T01140036  RH  059%=      5-min Rain = 0
KLA1 142131Z 32008KT 11/04 A3005 RMK A01 T01140040  RH  061%=      5-min Rain = 0
KLA1 142132Z 31011G16KT 11/04 A3005 RMK A01 T01140041  RH  061%=      5-min Rain = 0
KLA1 142133Z 31015G20KT 11/04 A3005 RMK A01 T01140038  RH  060%=      5-min Rain = 0
KLA1 142134Z 32013G19KT 12/04 A3005 RMK A01 T01150036  RH  059%=      5-min Rain = 0
KLA1 142135Z 31015G20KT 11/04 A3005 RMK A01 T01140036  RH  059%=      5-min Rain = 0
KLA1 142136Z 31015KT 11/04 A3005 RMK A01 T01140035  RH  059%=      5-min Rain = 0
KLA1 142137Z 31011G17KT 11/04 A3005 RMK A01 T01140036  RH  059%=      5-min Rain = 0
KLA1 142138Z 31014KT 11/04 A3005 RMK A01 T01140037  RH  059%=      5-min Rain = 0
KLA1 142139Z 31014G19KT 11/04 A3005 RMK A01 T01140037  RH  059%=      5-min Rain = 0
KLA1 142140Z 32016KT 11/04 A3005 RMK A01 T01140035  RH  058%=      5-min Rain = 0
KLA1 142141Z 32013KT 11/04 A3005 RMK A01 T01140036  RH  059%=      5-min Rain = 0
KLA1 142142Z 32013G18KT 11/04 A3005 RMK A01 T01140036  RH  059%=      5-min Rain = 0
KLA1 142143Z 32014KT 11/04 A3005 RMK A01 T01130036  RH  059%=      5-min Rain = 0
KLA1 142144Z 33011G17KT 11/04 A3005 RMK A01 T01130038  RH  060%=      5-min Rain = 0
KLA1 142145Z 32013KT 11/04 A3005 RMK A01 T01130036  RH  059%=      5-min Rain = 0
KLA1 142146Z 33013KT 11/04 A3005 RMK A01 T01130037  RH  059%=      5-min Rain = 0
KLA1 142147Z 32015G20KT 11/04 A3005 RMK A01 T01120035  RH  059%=      5-min Rain = 0
KLA1 142148Z 33012G17KT 11/04 A3005 RMK A01 T01120036  RH  059%=      5-min Rain = 0
KLA1 142149Z 32009KT 11/04 A3005 RMK A01 T01120037  RH  060%=      5-min Rain = 0
KLA1 142150Z 33008KT 11/04 A3005 RMK A01 T01110037  RH  060%=      5-min Rain = 0
KLA1 142151Z 34009G16KT 11/04 A3005 RMK A01 T01110037  RH  060%=      5-min Rain = 0
KLA1 142152Z 33009KT 11/04 A3005 RMK A01 T01110037  RH  060%=      5-min Rain = 0
KLA1 142153Z 33011KT 11/04 A3005 RMK A01 T01110037  RH  060%=      5-min Rain = 0
KLA1 142154Z 32014G19KT 11/04 A3005 RMK A01 T01100036  RH  060%=      5-min Rain = 0
KLA1 142155Z 32014KT 11/04 A3005 RMK A01 T01100036  RH  060%=      5-min Rain = 0
KLA1 142156Z 33014G20KT 11/04 A3005 RMK A01 T01090036  RH  060%=      5-min Rain = 0
KLA1 142157Z 32013G18KT 11/03 A3005 RMK A01 T01090034  RH  060%=      5-min Rain = 0
KLA1 142158Z 33010KT 11/04 A3005 RMK A01 T01080035  RH  060%=      5-min Rain = 0
KLA1 142159Z 32012KT 11/04 A3006 RMK A01 T01080036  RH  061%=      5-min Rain = 0
KLA1 142200Z 32014G20KT 11/04 A3006 RMK A01 T01080036  RH  061%=      5-min Rain = 0
KLA1 142201Z 32016KT 11/04 A3006 RMK A01 T01090035  RH  060%=      5-min Rain = 0
KLA1 142202Z 32012G17KT 11/04 A3006 RMK A01 T01080035  RH  061%=      5-min Rain = 0
KLA1 142203Z 33012G17KT 11/04 A3006 RMK A01 T01080036  RH  061%=      5-min Rain = 0
KLA1 142204Z 32014G21KT 11/04 A3006 RMK A01 T01080035  RH  061%=      5-min Rain = 0
KLA1 142205Z 33014G19KT 11/03 A3006 RMK A01 T01070033  RH  060%=      5-min Rain = 0
KLA1 142206Z 33011G16KT 11/03 A3006 RMK A01 T01060034  RH  061%=      5-min Rain = 0
KLA1 142207Z 32016KT 11/03 A3006 RMK A01 T01060034  RH  061%=      5-min Rain = 0
KLA1 142208Z 32012G17KT 11/03 A3006 RMK A01 T01060034  RH  061%=      5-min Rain = 0
KLA1 142209Z 32014G19KT 11/04 A3006 RMK A01 T01060035  RH  062%=      5-min Rain = 0
KLA1 142210Z 31015KT 11/04 A3006 RMK A01 T01060035  RH  062%=      5-min Rain = 0
KLA1 142211Z 32017KT 11/04 A3006 RMK A01 T01060036  RH  062%=      5-min Rain = 0
KLA1 142212Z 32015KT 11/04 A3006 RMK A01 T01050035  RH  062%=      5-min Rain = 0
KLA1 142213Z 32017KT 11/04 A3006 RMK A01 T01050035  RH  062%=      5-min Rain = 0
KLA1 142214Z 33009G14KT 11/04 A3006 RMK A01 T01050036  RH  062%=      5-min Rain = 0
KLA1 142215Z 32011KT 11/04 A3006 RMK A01 T01050037  RH  062%=      5-min Rain = 0
KLA1 142216Z 33010G15KT 11/04 A3006 RMK A01 T01050036  RH  062%=      5-min Rain = 0
KLA1 142217Z 33014KT 11/04 A3006 RMK A01 T01050035  RH  062%=      5-min Rain = 0
KLA1 142218Z 33014G19KT 11/04 A3006 RMK A01 T01050035  RH  062%=      5-min Rain = 0
KLA1 142219Z 32018KT 11/03 A3006 RMK A01 T01050034  RH  062%=      5-min Rain = 0
KLA1 142220Z 32014KT 11/04 A3006 RMK A01 T01050035  RH  062%=      5-min Rain = 0
KLA1 142221Z 33013G18KT 11/04 A3006 RMK A01 T01050036  RH  062%=      5-min Rain = 0
KLA1 142222Z 32016G21KT 11/04 A3006 RMK A01 T01050035  RH  062%=      5-min Rain = 0
KLA1 142223Z 32013G20KT 11/04 A3006 RMK A01 T01050035  RH  062%=      5-min Rain = 0
KLA1 142224Z 32015G22KT 11/04 A3006 RMK A01 T01050035  RH  062%=      5-min Rain = 0
KLA1 142225Z 33014G19KT 11/04 A3006 RMK A01 T01050035  RH  062%=      5-min Rain = 0
KLA1 142226Z 32015G20KT 11/04 A3006 RMK A01 T01060035  RH  061%=      5-min Rain = 0
KLA1 142227Z 32016KT 11/04 A3006 RMK A01 T01070035  RH  061%=      5-min Rain = 0
KLA1 142228Z 32012G19KT 11/04 A3006 RMK A01 T01070035  RH  061%=      5-min Rain = 0
KLA1 142229Z 33011G19KT 11/04 A3006 RMK A01 T01070035  RH  061%=      5-min Rain = 0
KLA1 142230Z 33012G18KT 11/04 A3007 RMK A01 T01070036  RH  061%=      5-min Rain = 0
KLA1 142231Z 32012G17KT 11/04 A3007 RMK A01 T01070035  RH  061%=      5-min Rain = 0
KLA1 142232Z 32013KT 11/04 A3006 RMK A01 T01080035  RH  061%=      5-min Rain = 0
KLA1 142233Z 33013KT 11/03 A3006 RMK A01 T01080034  RH  060%=      5-min Rain = 0
KLA1 142234Z 32011KT 11/04 A3006 RMK A01 T01070036  RH  061%=      5-min Rain = 0
KLA1 142235Z 33009KT 11/04 A3006 RMK A01 T01070036  RH  061%=      5-min Rain = 0
KLA1 142236Z 32012G17KT 11/04 A3006 RMK A01 T01080036  RH  061%=      5-min Rain = 0
KLA1 142237Z 32012KT 11/04 A3006 RMK A01 T01080035  RH  061%=      5-min Rain = 0
KLA1 142238Z 33011KT 11/04 A3007 RMK A01 T01070035  RH  061%=      5-min Rain = 0
KLA1 142239Z 32009KT 11/03 A3007 RMK A01 T01070034  RH  061%=      5-min Rain = 0
KLA1 142240Z 32012KT 11/03 A3007 RMK A01 T01060034  RH  061%=      5-min Rain = 0
KLA1 142241Z 32014KT 11/03 A3007 RMK A01 T01060033  RH  060%=      5-min Rain = 0
KLA1 142242Z 32014G19KT 11/03 A3007 RMK A01 T01050031  RH  060%=      5-min Rain = 0
KLA1 142243Z 32015G20KT 10/03 A3007 RMK A01 T01040032  RH  061%=      5-min Rain = 0
KLA1 142244Z 32014G19KT 10/03 A3007 RMK A01 T01040032  RH  061%=      5-min Rain = 0
KLA1 142245Z 33012G19KT 10/03 A3007 RMK A01 T01040032  RH  061%=      5-min Rain = 0
KLA1 142246Z 32013KT 10/03 A3007 RMK A01 T01030033  RH  062%=      5-min Rain = 0
KLA1 142247Z 32009KT 10/03 A3007 RMK A01 T01030033  RH  062%=      5-min Rain = 0
KLA1 142248Z 33014G19KT 10/03 A3007 RMK A01 T01030033  RH  062%=      5-min Rain = 0
KLA1 142249Z 33011KT 10/03 A3007 RMK A01 T01020031  RH  061%=      5-min Rain = 0
KLA1 142250Z 32013KT 10/03 A3007 RMK A01 T01020032  RH  061%=      5-min Rain = 0
KLA1 142251Z 33012G19KT 10/03 A3007 RMK A01 T01020031  RH  061%=      5-min Rain = 0
KLA1 142252Z 33009KT 10/03 A3007 RMK A01 T01020032  RH  062%=      5-min Rain = 0
KLA1 142253Z 32011G16KT 10/03 A3007 RMK A01 T01020032  RH  062%=      5-min Rain = 0
KLA1 142254Z 32012G17KT 10/03 A3007 RMK A01 T01020032  RH  062%=      5-min Rain = 0
KLA1 142255Z 32015G21KT 10/03 A3007 RMK A01 T01020031  RH  061%=      5-min Rain = 0
KLA1 142256Z 32013G19KT 10/03 A3007 RMK A01 T01010031  RH  061%=      5-min Rain = 0
KLA1 142257Z 32012KT 10/03 A3007 RMK A01 T01010030  RH  061%=      5-min Rain = 0
KLA1 142258Z 31014G19KT 10/03 A3007 RMK A01 T01020031  RH  062%=      5-min Rain = 0
KLA1 142259Z 31012G17KT 10/03 A3007 RMK A01 T01020031  RH  062%=      5-min Rain = 0
KLA1 142300Z 31011KT 10/03 A3007 RMK A01 T01010031  RH  062%=      5-min Rain = 0
KLA1 142301Z 32017KT 10/03 A3007 RMK A01 T01010031  RH  062%=      5-min Rain = 0
KLA1 142302Z 32010KT 10/03 A3007 RMK A01 T01010031  RH  062%=      5-min Rain = 0
KLA1 142303Z 33012KT 10/03 A3007 RMK A01 T01010032  RH  062%=      5-min Rain = 0
KLA1 142304Z 32012KT 10/03 A3007 RMK A01 T01010030  RH  061%=      5-min Rain = 0
KLA1 142305Z 33010KT 10/03 A3007 RMK A01 T01010031  RH  062%=      5-min Rain = 0
KLA1 142306Z 32011KT 10/03 A3007 RMK A01 T01010031  RH  062%=      5-min Rain = 0
KLA1 142307Z 33010G16KT 10/03 A3007 RMK A01 T01010031  RH  062%=      5-min Rain = 0
KLA1 142308Z 32010G16KT 10/03 A3007 RMK A01 T01020032  RH  062%=      5-min Rain = 0
KLA1 142309Z 32014G19KT 10/03 A3007 RMK A01 T01020029  RH  061%=      5-min Rain = 0
KLA1 142310Z 34015KT 10/03 A3007 RMK A01 T01020026  RH  059%=      5-min Rain = 0
KLA1 142311Z 33011G18KT 10/03 A3007 RMK A01 T01010028  RH  060%=      5-min Rain = 0
KLA1 142312Z 32013KT 10/03 A3007 RMK A01 T01010027  RH  060%=      5-min Rain = 0
KLA1 142313Z 31014G21KT 10/03 A3007 RMK A01 T01010026  RH  060%=      5-min Rain = 0
KLA1 142314Z 32015KT 10/03 A3007 RMK A01 T01000026  RH  060%=      5-min Rain = 0
KLA1 142315Z 32010KT 10/03 A3007 RMK A01 T01000027  RH  060%=      5-min Rain = 0
KLA1 142316Z 32010G15KT 10/03 A3007 RMK A01 T00990027  RH  061%=      5-min Rain = 0
KLA1 142317Z 33012KT 10/03 A3007 RMK A01 T01000027  RH  061%=      5-min Rain = 0
KLA1 142318Z 33011KT 10/03 A3007 RMK A01 T00990027  RH  061%=      5-min Rain = 0
KLA1 142319Z 34010KT 10/03 A3007 RMK A01 T00990027  RH  061%=      5-min Rain = 0
KLA1 142320Z 33012G17KT 10/03 A3007 RMK A01 T00990028  RH  061%=      5-min Rain = 0
KLA1 142321Z 34010KT 10/03 A3007 RMK A01 T00990029  RH  062%=      5-min Rain = 0
KLA1 142322Z 34014G22KT 10/03 A3008 RMK A01 T00980029  RH  062%=      5-min Rain = 0
KLA1 142323Z 34013G21KT 10/03 A3008 RMK A01 T00980029  RH  062%=      5-min Rain = 0
KLA1 142324Z 34012KT 10/03 A3008 RMK A01 T00970028  RH  062%=      5-min Rain = 0
KLA1 142325Z 34013G19KT 10/03 A3008 RMK A01 T00970028  RH  062%=      5-min Rain = 0
KLA1 142326Z 34011G16KT 10/03 A3008 RMK A01 T00960028  RH  062%=      5-min Rain = 0
KLA1 142327Z 34011KT 10/03 A3008 RMK A01 T00960029  RH  063%=      5-min Rain = 0
KLA1 142328Z 35010KT 10/03 A3008 RMK A01 T00960028  RH  063%=      5-min Rain = 0
KLA1 142329Z 35012G18KT 10/03 A3008 RMK A01 T00960028  RH  063%=      5-min Rain = 0
KLA1 142330Z 34010KT 10/03 A3008 RMK A01 T00950028  RH  063%=      5-min Rain = 0
KLA1 142331Z 34010G15KT 10/03 A3008 RMK A01 T00950027  RH  063%=      5-min Rain = 0
KLA1 142332Z 34009KT 10/03 A3009 RMK A01 T00950028  RH  063%=      5-min Rain = 0
KLA1 142333Z 33011G16KT 09/03 A3009 RMK A01 T00940028  RH  063%=      5-min Rain = 0
KLA1 142334Z 34012G17KT 09/03 A3009 RMK A01 T00940028  RH  063%=      5-min Rain = 0
KLA1 142335Z 34015G22KT 09/03 A3009 RMK A01 T00930026  RH  063%=      5-min Rain = 0
KLA1 142336Z 34014G21KT 09/03 A3009 RMK A01 T00930025  RH  063%=      5-min Rain = 0
KLA1 142337Z 34011KT 09/03 A3009 RMK A01 T00920025  RH  063%=      5-min Rain = 0
KLA1 142338Z 33016G27KT 09/03 A301 RMK A01 T00920025  RH  063%=      5-min Rain = 0
KLA1 142339Z 34015G21KT 09/03 A3009 RMK A01 T00920025  RH  063%=      5-min Rain = 0
KLA1 142340Z 33015KT 09/02 A301 RMK A01 T00910024  RH  063%=      5-min Rain = 0
KLA1 142341Z 32019G24KT 09/02 A3009 RMK A01 T00910024  RH  063%=      5-min Rain = 0
KLA1 142342Z 32015G20KT 09/03 A301 RMK A01 T00910025  RH  063%=      5-min Rain = 0
KLA1 142343Z 35013KT 09/03 A301 RMK A01 T00910025  RH  064%=      5-min Rain = 0
KLA1 142344Z 33013G21KT 09/03 A301 RMK A01 T00910026  RH  064%=      5-min Rain = 0
KLA1 142345Z 33014G21KT 09/03 A301 RMK A01 T00900025  RH  064%=      5-min Rain = 0
KLA1 142346Z 33009G14KT 09/03 A301 RMK A01 T00900025  RH  064%=      5-min Rain = 0
KLA1 142347Z 33011KT 09/03 A301 RMK A01 T00900025  RH  064%=      5-min Rain = 0
KLA1 142348Z 33010KT 09/03 A301 RMK A01 T00900026  RH  064%=      5-min Rain = 0
KLA1 142349Z 34009KT 09/03 A301 RMK A01 T00900026  RH  064%=      5-min Rain = 0
KLA1 142350Z 33012KT 09/03 A301 RMK A01 T00900025  RH  064%=      5-min Rain = 0
KLA1 142351Z 35011G19KT 09/02 A301 RMK A01 T00900024  RH  063%=      5-min Rain = 0
KLA1 142352Z 34014KT 09/02 A301 RMK A01 T00890021  RH  062%=      5-min Rain = 0
KLA1 142353Z 34014G20KT 09/02 A3011 RMK A01 T00890020  RH  062%=      5-min Rain = 0
KLA1 142354Z 33011G18KT 09/02 A3011 RMK A01 T00890021  RH  062%=      5-min Rain = 0
KLA1 142355Z 33013KT 09/02 A3011 RMK A01 T00880020  RH  062%=      5-min Rain = 0
KLA1 142356Z 33014G24KT 09/02 A3011 RMK A01 T00880019  RH  062%=      5-min Rain = 0
KLA1 142357Z 32018G26KT 09/02 A3011 RMK A01 T00880019  RH  062%=      5-min Rain = 0
KLA1 142358Z 32020KT 09/02 A3011 RMK A01 T00870019  RH  063%=      5-min Rain = 0
KLA1 142359Z 34015G20KT 09/02 A3011 RMK A01 T00870020  RH  063%=      5-min Rain = 0
KLA1 150000Z 33012G17KT 09/02 A3011 RMK A01 T00860020  RH  063%=      5-min Rain = 0
KLA1 150001Z 33015KT 09/02 A3011 RMK A01 T00860021  RH  064%=      5-min Rain = 0
KLA1 150002Z 33011KT 09/02 A3011 RMK A01 T00860021  RH  064%=      5-min Rain = 0
KLA1 150003Z 34009KT 09/02 A3011 RMK A01 T00860022  RH  064%=      5-min Rain = 0
KLA1 150004Z 35010KT 09/02 A3011 RMK A01 T00860023  RH  064%=      5-min Rain = 0
KLA1 150005Z 34013G21KT 09/02 A3011 RMK A01 T00860022  RH  064%=      5-min Rain = 0
KLA1 150006Z 32016G22KT 09/02 A3011 RMK A01 T00860021  RH  064%=      5-min Rain = 0
KLA1 150007Z 33010KT 09/02 A3012 RMK A01 T00850020  RH  063%=      5-min Rain = 0
KLA1 150008Z 33015KT 09/02 A3012 RMK A01 T00850019  RH  063%=      5-min Rain = 0
KLA1 150009Z 33011G16KT 09/02 A3012 RMK A01 T00850019  RH  064%=      5-min Rain = 0
KLA1 150010Z 32009KT 08/02 A3012 RMK A01 T00840020  RH  064%=      5-min Rain = 0
KLA1 150011Z 32011G19KT 08/02 A3012 RMK A01 T00840022  RH  065%=      5-min Rain = 0
KLA1 150012Z 33015G20KT 08/02 A3012 RMK A01 T00840021  RH  065%=      5-min Rain = 0
KLA1 150013Z 32015G21KT 08/02 A3012 RMK A01 T00840020  RH  064%=      5-min Rain = 0
KLA1 150014Z 33010G15KT 08/02 A3012 RMK A01 T00830020  RH  065%=      5-min Rain = 0
KLA1 150015Z 33010KT 08/02 A3012 RMK A01 T00830020  RH  065%=      5-min Rain = 0
KLA1 150016Z 32012KT 08/02 A3012 RMK A01 T00830021  RH  065%=      5-min Rain = 0
KLA1 150017Z 32011KT 08/02 A3012 RMK A01 T00830021  RH  065%=      5-min Rain = 0
KLA1 150018Z 33009KT 08/02 A3013 RMK A01 T00830021  RH  065%=      5-min Rain = 0
KLA1 150019Z 33013G19KT 08/02 A3013 RMK A01 T00830021  RH  065%=      5-min Rain = 0
KLA1 150020Z 33012G18KT 08/02 A3013 RMK A01 T00830020  RH  065%=      5-min Rain = 0
KLA1 150021Z 33009G14KT 08/02 A3013 RMK A01 T00830021  RH  065%=      5-min Rain = 0
KLA1 150022Z 34010G16KT 08/02 A3013 RMK A01 T00820022  RH  065%=      5-min Rain = 0
KLA1 150023Z 34010KT 08/02 A3013 RMK A01 T00830021  RH  065%=      5-min Rain = 0
KLA1 150024Z 33011G18KT 08/02 A3013 RMK A01 T00830021  RH  065%=      5-min Rain = 0
KLA1 150025Z 33011G16KT 08/02 A3013 RMK A01 T00820021  RH  065%=      5-min Rain = 0
KLA1 150026Z 34010G15KT 08/02 A3013 RMK A01 T00820020  RH  065%=      5-min Rain = 0
KLA1 150027Z 35009KT 08/02 A3013 RMK A01 T00820021  RH  065%=      5-min Rain = 0
KLA1 150028Z 34012KT 08/02 A3013 RMK A01 T00820020  RH  065%=      5-min Rain = 0
KLA1 150029Z 35010KT 08/02 A3013 RMK A01 T00820020  RH  065%=      5-min Rain = 0
KLA1 150030Z 34009KT 08/02 A3013 RMK A01 T00810020  RH  065%=      5-min Rain = 0
KLA1 150031Z 34011KT 08/02 A3013 RMK A01 T00810019  RH  065%=      5-min Rain = 0
KLA1 150032Z 34011G16KT 08/02 A3014 RMK A01 T00810018  RH  064%=      5-min Rain = 0
KLA1 150033Z 34012G18KT 08/02 A3014 RMK A01 T00810018  RH  064%=      5-min Rain = 0
KLA1 150034Z 34012G18KT 08/02 A3014 RMK A01 T00810017  RH  064%=      5-min Rain = 0
KLA1 150035Z 33014G19KT 08/02 A3014 RMK A01 T00810017  RH  064%=      5-min Rain = 0
KLA1 150036Z 35011KT 08/02 A3014 RMK A01 T00810018  RH  064%=      5-min Rain = 0
KLA1 150037Z 35011KT 08/02 A3014 RMK A01 T00800017  RH  064%=      5-min Rain = 0
KLA1 150038Z 33010KT 08/02 A3014 RMK A01 T00800018  RH  065%=      5-min Rain = 0
KLA1 150039Z 34009KT 08/02 A3014 RMK A01 T00800018  RH  065%=      5-min Rain = 0
KLA1 150040Z 33009KT 08/02 A3014 RMK A01 T00800018  RH  065%=      5-min Rain = 0
KLA1 150041Z 34009G14KT 08/02 A3014 RMK A01 T00800019  RH  065%=      5-min Rain = 0
KLA1 150042Z 34011G17KT 08/02 A3014 RMK A01 T00800018  RH  065%=      5-min Rain = 0
KLA1 150043Z 35009G14KT 08/02 A3014 RMK A01 T00800018  RH  065%=      5-min Rain = 0
KLA1 150044Z 34012KT 08/02 A3014 RMK A01 T00790017  RH  065%=      5-min Rain = 0
KLA1 150045Z 34013KT 08/02 A3014 RMK A01 T00790017  RH  065%=      5-min Rain = 0
KLA1 150046Z 35009KT 08/02 A3014 RMK A01 T00790017  RH  065%=      5-min Rain = 0
KLA1 150047Z 34008KT 08/02 A3015 RMK A01 T00790017  RH  065%=      5-min Rain = 0
KLA1 150048Z 34009KT 08/02 A3015 RMK A01 T00780016  RH  065%=      5-min Rain = 0
KLA1 150049Z 33013G19KT 08/02 A3015 RMK A01 T00780016  RH  065%=      5-min Rain = 0
KLA1 150050Z 33010G15KT 08/02 A3015 RMK A01 T00780015  RH  064%=      5-min Rain = 0
KLA1 150051Z 33009KT 08/02 A3015 RMK A01 T00780016  RH  065%=      5-min Rain = 0
KLA1 150052Z 33008G14KT 08/02 A3015 RMK A01 T00780016  RH  065%=      5-min Rain = 0
KLA1 150053Z 33011KT 08/02 A3015 RMK A01 T00780015  RH  065%=      5-min Rain = 0
KLA1 150054Z 34009KT 08/02 A3015 RMK A01 T00780015  RH  064%=      5-min Rain = 0
KLA1 150055Z 35009KT 08/02 A3015 RMK A01 T00780015  RH  064%=      5-min Rain = 0
KLA1 150056Z 35010KT 08/02 A3015 RMK A01 T00780015  RH  065%=      5-min Rain = 0
KLA1 150057Z 00011G17KT 08/01 A3015 RMK A01 T00770014  RH  064%=      5-min Rain = 0
KLA1 150058Z 35016KT 08/01 A3015 RMK A01 T00780013  RH  064%=      5-min Rain = 0
KLA1 150059Z 35009KT 08/01 A3015 RMK A01 T00770013  RH  064%=      5-min Rain = 0
KLA1 150100Z 34012KT 08/01 A3015 RMK A01 T00770012  RH  063%=      5-min Rain = 0
KLA1 150101Z 34011KT 08/01 A3015 RMK A01 T00770011  RH  063%=      5-min Rain = 0
KLA1 150102Z 35010KT 08/01 A3015 RMK A01 T00770011  RH  063%=      5-min Rain = 0
KLA1 150103Z 33009KT 08/01 A3015 RMK A01 T00770012  RH  063%=      5-min Rain = 0
KLA1 150104Z 33013KT 08/01 A3015 RMK A01 T00770012  RH  063%=      5-min Rain = 0
KLA1 150105Z 35009KT 08/01 A3016 RMK A01 T00770011  RH  063%=      5-min Rain = 0
KLA1 150106Z 33008G13KT 08/01 A3016 RMK A01 T00770013  RH  064%=      5-min Rain = 0
KLA1 150107Z 35010KT 08/01 A3016 RMK A01 T00770013  RH  064%=      5-min Rain = 0
KLA1 150108Z 34009KT 08/01 A3016 RMK A01 T00770012  RH  064%=      5-min Rain = 0
KLA1 150109Z 33010G15KT 08/01 A3016 RMK A01 T00770013  RH  064%=      5-min Rain = 0
KLA1 150110Z 33008G14KT 08/01 A3016 RMK A01 T00760012  RH  064%=      5-min Rain = 0
KLA1 150111Z 33010KT 08/01 A3016 RMK A01 T00760012  RH  064%=      5-min Rain = 0
KLA1 150112Z 35009KT 08/01 A3016 RMK A01 T00760012  RH  064%=      5-min Rain = 0
KLA1 150113Z 34009KT 08/01 A3016 RMK A01 T00760011  RH  064%=      5-min Rain = 0
KLA1 150114Z 34011KT 08/01 A3016 RMK A01 T00760012  RH  064%=      5-min Rain = 0
KLA1 150115Z 33011G17KT 08/01 A3016 RMK A01 T00760013  RH  064%=      5-min Rain = 0
KLA1 150116Z 35009KT 08/01 A3016 RMK A01 T00760013  RH  064%=      5-min Rain = 0
KLA1 150117Z 35008KT 08/01 A3016 RMK A01 T00760013  RH  064%=      5-min Rain = 0
KLA1 150118Z 35010KT 08/01 A3016 RMK A01 T00760013  RH  064%=      5-min Rain = 0
KLA1 150119Z 35010KT 08/01 A3016 RMK A01 T00760013  RH  064%=      5-min Rain = 0
KLA1 150120Z 34007KT 08/01 A3016 RMK A01 T00760014  RH  064%=      5-min Rain = 0
KLA1 150121Z 34007KT 08/01 A3016 RMK A01 T00760014  RH  065%=      5-min Rain = 0
KLA1 150122Z 33006KT 08/01 A3016 RMK A01 T00760014  RH  065%=      5-min Rain = 0
KLA1 150123Z 33007KT 08/01 A3016 RMK A01 T00760013  RH  065%=      5-min Rain = 0
KLA1 150124Z 33008KT 08/01 A3016 RMK A01 T00760014  RH  065%=      5-min Rain = 0
KLA1 150125Z 33007KT 08/01 A3016 RMK A01 T00760014  RH  065%=      5-min Rain = 0
KLA1 150126Z 33009KT 08/01 A3016 RMK A01 T00760014  RH  065%=      5-min Rain = 0
KLA1 150127Z 34009KT 08/01 A3016 RMK A01 T00760014  RH  065%=      5-min Rain = 0
KLA1 150128Z 32012KT 08/01 A3016 RMK A01 T00760014  RH  065%=      5-min Rain = 0
KLA1 150129Z 32010KT 08/01 A3016 RMK A01 T00760014  RH  065%=      5-min Rain = 0
KLA1 150130Z 33015G20KT 08/01 A3016 RMK A01 T00760014  RH  065%=      5-min Rain = 0
KLA1 150131Z 34013G20KT 08/01 A3016 RMK A01 T00760013  RH  065%=      5-min Rain = 0
KLA1 150132Z 32013G19KT 08/01 A3016 RMK A01 T00760012  RH  064%=      5-min Rain = 0
KLA1 150133Z 32015KT 08/01 A3016 RMK A01 T00760012  RH  064%=      5-min Rain = 0
KLA1 150134Z 33013G18KT 08/01 A3016 RMK A01 T00760012  RH  064%=      5-min Rain = 0
KLA1 150135Z 33010G15KT 08/01 A3016 RMK A01 T00760013  RH  064%=      5-min Rain = 0
KLA1 150136Z 33011G16KT 08/01 A3016 RMK A01 T00760014  RH  065%=      5-min Rain = 0
KLA1 150137Z 34010G16KT 08/01 A3016 RMK A01 T00760014  RH  065%=      5-min Rain = 0
KLA1 150138Z 33010G17KT 08/01 A3016 RMK A01 T00760014  RH  065%=      5-min Rain = 0
KLA1 150139Z 33009G16KT 08/01 A3017 RMK A01 T00760013  RH  064%=      5-min Rain = 0
KLA1 150140Z 34008KT 08/01 A3017 RMK A01 T00760014  RH  065%=      5-min Rain = 0
KLA1 150141Z 33008KT 08/01 A3017 RMK A01 T00760014  RH  065%=      5-min Rain = 0
KLA1 150142Z 33010KT 08/01 A3017 RMK A01 T00760013  RH  065%=      5-min Rain = 0
KLA1 150143Z 32009G14KT 08/01 A3017 RMK A01 T00750013  RH  065%=      5-min Rain = 0
KLA1 150144Z 33009G15KT 08/01 A3017 RMK A01 T00750012  RH  065%=      5-min Rain = 0
KLA1 150145Z 33010KT 08/01 A3017 RMK A01 T00750012  RH  064%=      5-min Rain = 0
KLA1 150146Z 33011KT 08/01 A3017 RMK A01 T00750011  RH  064%=      5-min Rain = 0
KLA1 150147Z 32013KT 08/01 A3017 RMK A01 T00750012  RH  064%=      5-min Rain = 0
KLA1 150148Z 33008G13KT 08/01 A3017 RMK A01 T00750011  RH  064%=      5-min Rain = 0
KLA1 150149Z 33012KT 08/01 A3017 RMK A01 T00750011  RH  064%=      5-min Rain = 0
KLA1 150150Z 34012KT 07/01 A3017 RMK A01 T00740010  RH  064%=      5-min Rain = 0
KLA1 150151Z 33014KT 07/01 A3017 RMK A01 T00740009  RH  063%=      5-min Rain = 0
KLA1 150152Z 34015G20KT 07/01 A3017 RMK A01 T00740008  RH  063%=      5-min Rain = 0
KLA1 150153Z 32013G18KT 07/01 A3017 RMK A01 T00740008  RH  063%=      5-min Rain = 0
KLA1 150154Z 32011G16KT 07/01 A3017 RMK A01 T00740008  RH  063%=      5-min Rain = 0
KLA1 150155Z 33012KT 07/01 A3018 RMK A01 T00740008  RH  063%=      5-min Rain = 0
KLA1 150156Z 33012KT 07/01 A3018 RMK A01 T00740009  RH  063%=      5-min Rain = 0
KLA1 150157Z 32012KT 07/01 A3018 RMK A01 T00740009  RH  063%=      5-min Rain = 0
KLA1 150158Z 33010KT 07/01 A3018 RMK A01 T00740009  RH  063%=      5-min Rain = 0
KLA1 150159Z 34007KT 07/01 A3018 RMK A01 T00740010  RH  064%=      5-min Rain = 0
KLA1 150200Z 34010KT 07/01 A3018 RMK A01 T00740010  RH  064%=      5-min Rain = 0
KLA1 150201Z 35012KT 07/01 A3018 RMK A01 T00740010  RH  064%=      5-min Rain = 0
KLA1 150202Z 34010KT 07/01 A3018 RMK A01 T00740009  RH  063%=      5-min Rain = 0
KLA1 150203Z 34008KT 07/01 A3018 RMK A01 T00740009  RH  064%=      5-min Rain = 0
KLA1 150204Z 34007KT 07/01 A3018 RMK A01 T00740010  RH  064%=      5-min Rain = 0
KLA1 150205Z 35008KT 07/01 A3018 RMK A01 T00740011  RH  064%=      5-min Rain = 0
KLA1 150206Z 33008G14KT 07/01 A3018 RMK A01 T00730011  RH  064%=      5-min Rain = 0
KLA1 150207Z 33009KT 07/01 A3018 RMK A01 T00740011  RH  064%=      5-min Rain = 0
KLA1 150208Z 34008KT 07/01 A3018 RMK A01 T00730010  RH  064%=      5-min Rain = 0
KLA1 150209Z 33011KT 07/01 A3018 RMK A01 T00730010  RH  064%=      5-min Rain = 0
KLA1 150210Z 33010KT 07/01 A3018 RMK A01 T00740010  RH  064%=      5-min Rain = 0
KLA1 150211Z 35009KT 07/01 A3018 RMK A01 T00730010  RH  064%=      5-min Rain = 0
KLA1 150212Z 34008KT 07/01 A3018 RMK A01 T00740011  RH  064%=      5-min Rain = 0
KLA1 150213Z 35009KT 07/01 A3018 RMK A01 T00740011  RH  064%=      5-min Rain = 0
KLA1 150214Z 33007KT 07/01 A3018 RMK A01 T00730011  RH  064%=      5-min Rain = 0
KLA1 150215Z 33008KT 07/01 A3018 RMK A01 T00730011  RH  065%=      5-min Rain = 0
KLA1 150216Z 34007G12KT 07/01 A3018 RMK A01 T00730011  RH  065%=      5-min Rain = 0
KLA1 150217Z 32011KT 07/01 A3018 RMK A01 T00730011  RH  064%=      5-min Rain = 0
KLA1 150218Z 34010KT 07/01 A3018 RMK A01 T00730010  RH  064%=      5-min Rain = 0
KLA1 150219Z 34008KT 07/01 A3018 RMK A01 T00730010  RH  064%=      5-min Rain = 0
KLA1 150220Z 35007KT 07/01 A3018 RMK A01 T00730010  RH  064%=      5-min Rain = 0
KLA1 150221Z 33006KT 07/01 A3018 RMK A01 T00730010  RH  064%=      5-min Rain = 0
KLA1 150222Z 35010G15KT 07/01 A3018 RMK A01 T00730011  RH  064%=      5-min Rain = 0
KLA1 150223Z 35011KT 07/01 A3018 RMK A01 T00730010  RH  064%=      5-min Rain = 0
KLA1 150224Z 35012KT 07/01 A3018 RMK A01 T00730009  RH  064%=      5-min Rain = 0
KLA1 150225Z 34011G16KT 07/01 A3018 RMK A01 T00730009  RH  064%=      5-min Rain = 0
KLA1 150226Z 34011G16KT 07/01 A3018 RMK A01 T00730009  RH  064%=      5-min Rain = 0
KLA1 150227Z 35009G15KT 07/01 A3018 RMK A01 T00730008  RH  063%=      5-min Rain = 0
KLA1 150228Z 35010KT 07/01 A3018 RMK A01 T00730008  RH  063%=      5-min Rain = 0
KLA1 150229Z 35011G18KT 07/01 A3018 RMK A01 T00730007  RH  063%=      5-min Rain = 0
KLA1 150230Z 34009KT 07/01 A3018 RMK A01 T00730007  RH  063%=      5-min Rain = 0
KLA1 150231Z 34009KT 07/01 A3019 RMK A01 T00730008  RH  063%=      5-min Rain = 0
KLA1 150232Z 35008KT 07/01 A3019 RMK A01 T00730007  RH  063%=      5-min Rain = 0
KLA1 150233Z 36010G15KT 07/01 A3019 RMK A01 T00720007  RH  063%=      5-min Rain = 0
KLA1 150234Z 34008KT 07/01 A3019 RMK A01 T00720006  RH  063%=      5-min Rain = 0
KLA1 150235Z 34007KT 07/01 A3019 RMK A01 T00720007  RH  063%=      5-min Rain = 0
KLA1 150236Z 33007KT 07/01 A3019 RMK A01 T00710006  RH  063%=      5-min Rain = 0
KLA1 150237Z 33009G14KT 07/01 A3019 RMK A01 T00710007  RH  064%=      5-min Rain = 0
KLA1 150238Z 34009G14KT 07/01 A3019 RMK A01 T00710007  RH  064%=      5-min Rain = 0
KLA1 150239Z 33008KT 07/01 A3019 RMK A01 T00710006  RH  063%=      5-min Rain = 0
KLA1 150240Z 33010KT 07/01 A3019 RMK A01 T00710006  RH  063%=      5-min Rain = 0
KLA1 150241Z 35008KT 07/01 A3019 RMK A01 T00710006  RH  064%=      5-min Rain = 0
KLA1 150242Z 32009KT 07/01 A3019 RMK A01 T00700007  RH  064%=      5-min Rain = 0
KLA1 150243Z 34008KT 07/01 A3019 RMK A01 T00700006  RH  064%=      5-min Rain = 0
KLA1 150244Z 34011KT 07/01 A3019 RMK A01 T00700005  RH  063%=      5-min Rain = 0
KLA1 150245Z 34008KT 07/01 A3019 RMK A01 T00700005  RH  063%=      5-min Rain = 0
KLA1 150246Z 33008G13KT 07/01 A3019 RMK A01 T00700006  RH  064%=      5-min Rain = 0
KLA1 150247Z 33008KT 07/01 A3019 RMK A01 T00700005  RH  064%=      5-min Rain = 0
KLA1 150248Z 34008KT 07/01 A3019 RMK A01 T00700006  RH  064%=      5-min Rain = 0
KLA1 150249Z 33007KT 07/01 A3019 RMK A01 T00700006  RH  064%=      5-min Rain = 0
KLA1 150250Z 33007KT 07/01 A3019 RMK A01 T00690007  RH  064%=      5-min Rain = 0
KLA1 150251Z 34008KT 07/01 A3019 RMK A01 T00690007  RH  064%=      5-min Rain = 0
KLA1 150252Z 33008KT 07/01 A3019 RMK A01 T00690007  RH  065%=      5-min Rain = 0
KLA1 150253Z 33008G13KT 07/01 A3019 RMK A01 T00690007  RH  065%=      5-min Rain = 0
KLA1 150254Z 34007KT 07/01 A3019 RMK A01 T00690007  RH  065%=      5-min Rain = 0
KLA1 150255Z 34009KT 07/01 A3019 RMK A01 T00690007  RH  065%=      5-min Rain = 0
KLA1 150256Z 33008KT 07/01 A3019 RMK A01 T00690007  RH  065%=      5-min Rain = 0
KLA1 150257Z 33008KT 07/01 A3019 RMK A01 T00690007  RH  065%=      5-min Rain = 0
KLA1 150258Z 33007KT 07/01 A3019 RMK A01 T00690007  RH  065%=      5-min Rain = 0
KLA1 150259Z 33006KT 07/01 A3019 RMK A01 T00690008  RH  065%=      5-min Rain = 0
KLA1 150300Z 33004KT 07/01 A3019 RMK A01 T00690009  RH  066%=      5-min Rain = 0
KLA1 150301Z 32006KT 07/01 A3019 RMK A01 T00680009  RH  066%=      5-min Rain = 0
KLA1 150302Z 33006KT 07/01 A3019 RMK A01 T00680009  RH  066%=      5-min Rain = 0
KLA1 150303Z 32008KT 07/01 A3019 RMK A01 T00680008  RH  066%=      5-min Rain = 0
KLA1 150304Z 32007KT 07/01 A302 RMK A01 T00680009  RH  066%=      5-min Rain = 0
KLA1 150305Z 32007KT 07/01 A3019 RMK A01 T00680009  RH  066%=      5-min Rain = 0
KLA1 150306Z 32006KT 07/01 A3019 RMK A01 T00680009  RH  066%=      5-min Rain = 0
KLA1 150307Z 32006KT 07/01 A302 RMK A01 T00680010  RH  067%=      5-min Rain = 0
KLA1 150308Z 32006KT 07/01 A302 RMK A01 T00680011  RH  067%=      5-min Rain = 0
KLA1 150309Z 31007KT 07/01 A3019 RMK A01 T00680011  RH  067%=      5-min Rain = 0
KLA1 150310Z 32008KT 07/01 A3019 RMK A01 T00670011  RH  067%=      5-min Rain = 0
KLA1 150311Z 32008KT 07/01 A302 RMK A01 T00670011  RH  067%=      5-min Rain = 0
KLA1 150312Z 32007KT 07/01 A3019 RMK A01 T00670011  RH  067%=      5-min Rain = 0
KLA1 150313Z 31008KT 07/01 A302 RMK A01 T00670011  RH  067%=      5-min Rain = 0
KLA1 150314Z 31008KT 07/01 A302 RMK A01 T00680011  RH  067%=      5-min Rain = 0
KLA1 150315Z 31006KT 07/01 A302 RMK A01 T00680011  RH  067%=      5-min Rain = 0
KLA1 150316Z 32006KT 07/01 A302 RMK A01 T00670011  RH  067%=      5-min Rain = 0
KLA1 150317Z 31008KT 07/01 A302 RMK A01 T00680011  RH  067%=      5-min Rain = 0
KLA1 150318Z 32007KT 07/01 A302 RMK A01 T00670012  RH  068%=      5-min Rain = 0
KLA1 150319Z 32006KT 07/01 A302 RMK A01 T00670012  RH  068%=      5-min Rain = 0
KLA1 150320Z 32008KT 07/01 A302 RMK A01 T00670012  RH  068%=      5-min Rain = 0
KLA1 150321Z 32009KT 07/01 A302 RMK A01 T00670011  RH  067%=      5-min Rain = 0
KLA1 150322Z 32007KT 07/01 A302 RMK A01 T00680010  RH  067%=      5-min Rain = 0
KLA1 150323Z 32007KT 07/01 A302 RMK A01 T00670011  RH  067%=      5-min Rain = 0
KLA1 150324Z 31008KT 07/01 A302 RMK A01 T00670011  RH  067%=      5-min Rain = 0
KLA1 150325Z 31011KT 07/01 A302 RMK A01 T00670010  RH  067%=      5-min Rain = 0
KLA1 150326Z 32010KT 07/01 A302 RMK A01 T00670009  RH  066%=      5-min Rain = 0
KLA1 150327Z 31011KT 07/01 A302 RMK A01 T00680008  RH  066%=      5-min Rain = 0
KLA1 150328Z 32011KT 07/01 A302 RMK A01 T00680008  RH  066%=      5-min Rain = 0
KLA1 150329Z 32010KT 07/01 A302 RMK A01 T00680008  RH  065%=      5-min Rain = 0
KLA1 150330Z 33007KT 07/01 A302 RMK A01 T00680007  RH  065%=      5-min Rain = 0
KLA1 150331Z 32010KT 07/01 A302 RMK A01 T00690008  RH  065%=      5-min Rain = 0
KLA1 150332Z 32011KT 07/01 A302 RMK A01 T00690009  RH  066%=      5-min Rain = 0
KLA1 150333Z 32008KT 07/01 A302 RMK A01 T00690008  RH  065%=      5-min Rain = 0
KLA1 150334Z 33009KT 07/01 A302 RMK A01 T00690008  RH  065%=      5-min Rain = 0
KLA1 150335Z 32010KT 07/01 A302 RMK A01 T00690007  RH  065%=      5-min Rain = 0
KLA1 150336Z 33011KT 07/01 A302 RMK A01 T00690008  RH  065%=      5-min Rain = 0
KLA1 150337Z 34008KT 07/01 A302 RMK A01 T00690008  RH  065%=      5-min Rain = 0
KLA1 150338Z 33008G14KT 07/01 A302 RMK A01 T00690008  RH  065%=      5-min Rain = 0
KLA1 150339Z 32011G16KT 07/01 A302 RMK A01 T00690007  RH  064%=      5-min Rain = 0
KLA1 150340Z 32012KT 07/01 A302 RMK A01 T00690005  RH  064%=      5-min Rain = 0
KLA1 150341Z 34010KT 07/01 A302 RMK A01 T00690005  RH  064%=      5-min Rain = 0
KLA1 150342Z 35009KT 07/01 A302 RMK A01 T00690005  RH  064%=      5-min Rain = 0
KLA1 150343Z 34007KT 07/01 A302 RMK A01 T00680006  RH  064%=      5-min Rain = 0
KLA1 150344Z 34006KT 07/01 A302 RMK A01 T00680006  RH  065%=      5-min Rain = 0
KLA1 150345Z 33010KT 07/01 A302 RMK A01 T00680006  RH  065%=      5-min Rain = 0
KLA1 150346Z 33008G13KT 07/01 A302 RMK A01 T00670005  RH  064%=      5-min Rain = 0
KLA1 150347Z 33009KT 07/01 A302 RMK A01 T00670005  RH  065%=      5-min Rain = 0
KLA1 150348Z 33009KT 07/01 A302 RMK A01 T00670006  RH  065%=      5-min Rain = 0
KLA1 150349Z 34007KT 07/01 A302 RMK A01 T00670005  RH  065%=      5-min Rain = 0
KLA1 150350Z 33010KT 07/01 A302 RMK A01 T00660006  RH  065%=      5-min Rain = 0
KLA1 150351Z 33010G15KT 07/01 A3021 RMK A01 T00660005  RH  065%=      5-min Rain = 0
KLA1 150352Z 34011G16KT 07/01 A3021 RMK A01 T00660005  RH  065%=      5-min Rain = 0
KLA1 150353Z 35013KT 07/01 A3021 RMK A01 T00660005  RH  065%=      5-min Rain = 0
KLA1 150354Z 34011KT 07/00 A3021 RMK A01 T00660004  RH  065%=      5-min Rain = 0
KLA1 150355Z 34010KT 07/01 A3021 RMK A01 T00660005  RH  065%=      5-min Rain = 0
KLA1 150356Z 33006KT 07/01 A3021 RMK A01 T00660005  RH  065%=      5-min Rain = 0
KLA1 150357Z 34007KT 07/01 A3021 RMK A01 T00660006  RH  065%=      5-min Rain = 0
KLA1 150358Z 33010G15KT 07/01 A3021 RMK A01 T00660006  RH  065%=      5-min Rain = 0
KLA1 150359Z 33009KT 07/01 A3021 RMK A01 T00660006  RH  065%=      5-min Rain = 0
KLA1 150400Z 33009KT 07/01 A3021 RMK A01 T00660006  RH  065%=      5-min Rain = 0
KLA1 150401Z 33009KT 07/01 A3021 RMK A01 T00660006  RH  065%=      5-min Rain = 0
KLA1 150402Z 33008G14KT 07/01 A3021 RMK A01 T00660006  RH  066%=      5-min Rain = 0
KLA1 150403Z 34008KT 07/01 A3021 RMK A01 T00660006  RH  066%=      5-min Rain = 0
KLA1 150404Z 34007KT 07/01 A3021 RMK A01 T00660006  RH  065%=      5-min Rain = 0
KLA1 150405Z 34006KT 07/01 A3021 RMK A01 T00660006  RH  066%=      5-min Rain = 0
KLA1 150406Z 34006KT 07/01 A3021 RMK A01 T00660007  RH  066%=      5-min Rain = 0
KLA1 150407Z 33008G16KT 07/01 A3021 RMK A01 T00660007  RH  066%=      5-min Rain = 0
KLA1 150408Z 33013KT 07/01 A3021 RMK A01 T00660006  RH  066%=      5-min Rain = 0
KLA1 150409Z 33012G18KT 07/01 A3021 RMK A01 T00660005  RH  065%=      5-min Rain = 0
KLA1 150410Z 33012KT 07/01 A3021 RMK A01 T00660005  RH  065%=      5-min Rain = 0
KLA1 150411Z 33012KT 07/00 A3021 RMK A01 T00660004  RH  065%=      5-min Rain = 0
KLA1 150412Z 33010KT 07/00 A3021 RMK A01 T00660004  RH  064%=      5-min Rain = 0
KLA1 150413Z 32009KT 07/01 A3021 RMK A01 T00670005  RH  065%=      5-min Rain = 0
KLA1 150414Z 32011KT 07/01 A3021 RMK A01 T00660005  RH  065%=      5-min Rain = 0
KLA1 150415Z 33010KT 07/01 A3021 RMK A01 T00660006  RH  065%=      5-min Rain = 0
KLA1 150416Z 33009KT 07/01 A3021 RMK A01 T00660005  RH  065%=      5-min Rain = 0
KLA1 150417Z 33011KT 07/01 A3021 RMK A01 T00660005  RH  065%=      5-min Rain = 0
KLA1 150418Z 33010KT 07/01 A3021 RMK A01 T00660005  RH  065%=      5-min Rain = 0
KLA1 150419Z 32010KT 07/01 A3021 RMK A01 T00660005  RH  065%=      5-min Rain = 0
KLA1 150420Z 32008KT 07/01 A3021 RMK A01 T00660006  RH  065%=      5-min Rain = 0
KLA1 150421Z 33009KT 07/01 A3021 RMK A01 T00660006  RH  065%=      5-min Rain = 0
KLA1 150422Z 33008KT 07/01 A3021 RMK A01 T00660006  RH  066%=      5-min Rain = 0
KLA1 150423Z 32006KT 07/01 A3021 RMK A01 T00660006  RH  066%=      5-min Rain = 0
KLA1 150424Z 32010KT 07/01 A3021 RMK A01 T00660006  RH  066%=      5-min Rain = 0
KLA1 150425Z 33008KT 07/01 A3021 RMK A01 T00660006  RH  065%=      5-min Rain = 0
KLA1 150426Z 32011G16KT 07/01 A3021 RMK A01 T00660005  RH  065%=      5-min Rain = 0
KLA1 150427Z 32011KT 07/00 A3021 RMK A01 T00660004  RH  065%=      5-min Rain = 0
KLA1 150428Z 32012KT 07/00 A3021 RMK A01 T00660004  RH  065%=      5-min Rain = 0
KLA1 150429Z 32009KT 07/00 A3021 RMK A01 T00660004  RH  065%=      5-min Rain = 0
KLA1 150430Z 32010KT 07/01 A3021 RMK A01 T00660005  RH  065%=      5-min Rain = 0
KLA1 150431Z 32007KT 07/01 A3021 RMK A01 T00660005  RH  065%=      5-min Rain = 0
KLA1 150432Z 33007KT 07/01 A3021 RMK A01 T00660005  RH  065%=      5-min Rain = 0
KLA1 150433Z 33010KT 07/01 A3021 RMK A01 T00660005  RH  065%=      5-min Rain = 0
KLA1 150434Z 33012KT 07/00 A3021 RMK A01 T00660004  RH  065%=      5-min Rain = 0
KLA1 150435Z 32013KT 07/00 A3021 RMK A01 T00660003  RH  064%=      5-min Rain = 0
KLA1 150436Z 33011KT 07/00 A3021 RMK A01 T00660003  RH  064%=      5-min Rain = 0
KLA1 150437Z 33010G15KT 07/00 A3021 RMK A01 T00660002  RH  064%=      5-min Rain = 0
KLA1 150438Z 32011KT 07/00 A3021 RMK A01 T00660002  RH  064%=      5-min Rain = 0
KLA1 150439Z 34007KT 07/00 A3021 RMK A01 T00660002  RH  064%=      5-min Rain = 0
KLA1 150440Z 33009KT 07/00 A3021 RMK A01 T00660004  RH  064%=      5-min Rain = 0
KLA1 150441Z 33012KT 07/00 A3021 RMK A01 T00660003  RH  064%=      5-min Rain = 0
KLA1 150442Z 34010KT 07/00 A3021 RMK A01 T00660002  RH  064%=      5-min Rain = 0
KLA1 150443Z 34011KT 07/00 A3021 RMK A01 T00660003  RH  064%=      5-min Rain = 0
KLA1 150444Z 33009KT 07/00 A3021 RMK A01 T00660003  RH  064%=      5-min Rain = 0
KLA1 150445Z 34011G16KT 07/00 A3021 RMK A01 T00660003  RH  064%=      5-min Rain = 0
KLA1 150446Z 34008KT 07/00 A3021 RMK A01 T00660004  RH  064%=      5-min Rain = 0
KLA1 150447Z 33009KT 07/00 A3021 RMK A01 T00660003  RH  064%=      5-min Rain = 0
KLA1 150448Z 32012KT 07/00 A3021 RMK A01 T00660003  RH  064%=      5-min Rain = 0
KLA1 150449Z 33010G15KT 07/00 A3021 RMK A01 T00660003  RH  064%=      5-min Rain = 0
KLA1 150450Z 33010G15KT 07/00 A3021 RMK A01 T00660003  RH  064%=      5-min Rain = 0
KLA1 150451Z 34008KT 07/00 A3021 RMK A01 T00660004  RH  065%=      5-min Rain = 0
KLA1 150452Z 33009KT 07/00 A3021 RMK A01 T00650004  RH  065%=      5-min Rain = 0
KLA1 150453Z 33009KT 07/00 A3022 RMK A01 T00660004  RH  065%=      5-min Rain = 0
KLA1 150454Z 33010G15KT 07/00 A3022 RMK A01 T00650004  RH  065%=      5-min Rain = 0
KLA1 150455Z 32012G17KT 07/00 A3022 RMK A01 T00650003  RH  065%=      5-min Rain = 0
KLA1 150456Z 33011G16KT 07/00 A3022 RMK A01 T00650003  RH  064%=      5-min Rain = 0
KLA1 150457Z 35008KT 07/00 A3022 RMK A01 T00650004  RH  065%=      5-min Rain = 0
KLA1 150458Z 33010KT 07/00 A3022 RMK A01 T00650004  RH  065%=      5-min Rain = 0
KLA1 150459Z 33013KT 07/00 A3022 RMK A01 T00650004  RH  065%=      5-min Rain = 0
KLA1 150500Z 34012KT 07/00 A3022 RMK A01 T00650004  RH  065%=      5-min Rain = 0
KLA1 150501Z 34009G14KT 07/00 A3022 RMK A01 T00650003  RH  065%=      5-min Rain = 0
KLA1 150502Z 35009KT 07/00 A3022 RMK A01 T00650004  RH  065%=      5-min Rain = 0
KLA1 150503Z 35011KT 07/00 A3022 RMK A01 T00650004  RH  065%=      5-min Rain = 0
KLA1 150504Z 35012G17KT 07/00 A3022 RMK A01 T00650004  RH  065%=      5-min Rain = 0
KLA1 150505Z 34010G15KT 07/00 A3022 RMK A01 T00650004  RH  065%=      5-min Rain = 0
KLA1 150506Z 33011G16KT 07/00 A3022 RMK A01 T00650004  RH  065%=      5-min Rain = 0
KLA1 150507Z 34012G17KT 06/00 A3022 RMK A01 T00640003  RH  065%=      5-min Rain = 0
KLA1 150508Z 35014KT 06/00 A3022 RMK A01 T00640003  RH  065%=      5-min Rain = 0
KLA1 150509Z 35013KT 06/00 A3022 RMK A01 T00640003  RH  065%=      5-min Rain = 0
KLA1 150510Z 35012G18KT 06/00 A3022 RMK A01 T00640003  RH  065%=      5-min Rain = 0
KLA1 150511Z 35015KT 06/00 A3022 RMK A01 T00640002  RH  065%=      5-min Rain = 0
KLA1 150512Z 35015KT 06/00 A3023 RMK A01 T00640002  RH  065%=      5-min Rain = 0
KLA1 150513Z 35014KT 06/00 A3022 RMK A01 T00630001  RH  065%=      5-min Rain = 0
KLA1 150514Z 35014KT 06/00 A3023 RMK A01 T00630001  RH  064%=      5-min Rain = 0
KLA1 150515Z 35011KT 06/00 A3022 RMK A01 T00630001  RH  064%=      5-min Rain = 0
KLA1 150516Z 35012KT 06/00 A3023 RMK A01 T00630001  RH  065%=      5-min Rain = 0
KLA1 150517Z 35011KT 06/00 A3023 RMK A01 T00630000  RH  064%=      5-min Rain = 0
KLA1 150518Z 36009KT 06/00 A3022 RMK A01 T00630000  RH  064%=      5-min Rain = 0
KLA1 150519Z 35011KT 06/00 A3022 RMK A01 T00630001  RH  065%=      5-min Rain = 0
KLA1 150520Z 35010KT 06/00 A3023 RMK A01 T00630000  RH  064%=      5-min Rain = 0
KLA1 150521Z 35011KT 06/00 A3023 RMK A01 T006300-0  RH  064%=      5-min Rain = 0
KLA1 150522Z 35008KT 06/00 A3023 RMK A01 T006300-0  RH  064%=      5-min Rain = 0
KLA1 150523Z 34008KT 06/00 A3023 RMK A01 T00630001  RH  064%=      5-min Rain = 0
KLA1 150524Z 35007KT 06/00 A3023 RMK A01 T00630001  RH  064%=      5-min Rain = 0
KLA1 150525Z 35007KT 06/00 A3023 RMK A01 T00630001  RH  065%=      5-min Rain = 0
KLA1 150526Z 35008KT 06/00 A3023 RMK A01 T00630002  RH  065%=      5-min Rain = 0
KLA1 150527Z 35009KT 06/00 A3023 RMK A01 T00630001  RH  065%=      5-min Rain = 0
KLA1 150528Z 34009KT 06/00 A3023 RMK A01 T00630001  RH  065%=      5-min Rain = 0
KLA1 150529Z 35008KT 06/00 A3023 RMK A01 T00630000  RH  064%=      5-min Rain = 0
KLA1 150530Z 35008KT 06/00 A3023 RMK A01 T00630000  RH  064%=      5-min Rain = 0
KLA1 150531Z 35007KT 06/00 A3023 RMK A01 T00630001  RH  065%=      5-min Rain = 0
KLA1 150532Z 34006KT 06/00 A3023 RMK A01 T00630001  RH  065%=      5-min Rain = 0
KLA1 150533Z 35006KT 06/00 A3023 RMK A01 T00630002  RH  065%=      5-min Rain = 0
KLA1 150534Z 35007KT 06/00 A3023 RMK A01 T00630002  RH  065%=      5-min Rain = 0
KLA1 150535Z 35007KT 06/00 A3023 RMK A01 T00630002  RH  065%=      5-min Rain = 0
KLA1 150536Z 35007KT 06/00 A3023 RMK A01 T00630001  RH  065%=      5-min Rain = 0
KLA1 150537Z 35005KT 06/00 A3023 RMK A01 T00630002  RH  065%=      5-min Rain = 0
KLA1 150538Z 34008KT 06/00 A3023 RMK A01 T00630002  RH  065%=      5-min Rain = 0
KLA1 150539Z 35006KT 06/00 A3023 RMK A01 T00630002  RH  065%=      5-min Rain = 0
KLA1 150540Z 36006G12KT 06/00 A3023 RMK A01 T00630002  RH  065%=      5-min Rain = 0
KLA1 150541Z 35008KT 06/00 A3024 RMK A01 T00630001  RH  065%=      5-min Rain = 0
KLA1 150542Z 34007KT 06/00 A3023 RMK A01 T00630001  RH  065%=      5-min Rain = 0
KLA1 150543Z 34006KT 06/00 A3024 RMK A01 T00630002  RH  065%=      5-min Rain = 0
KLA1 150544Z 33006KT 06/00 A3024 RMK A01 T00630003  RH  065%=      5-min Rain = 0
KLA1 150545Z 34005KT 06/00 A3024 RMK A01 T00630003  RH  065%=      5-min Rain = 0
KLA1 150546Z 35005KT 06/00 A3024 RMK A01 T00630002  RH  065%=      5-min Rain = 0
KLA1 150547Z 34005KT 06/00 A3024 RMK A01 T00620003  RH  066%=      5-min Rain = 0
KLA1 150548Z 34005KT 06/00 A3024 RMK A01 T00620003  RH  066%=      5-min Rain = 0
KLA1 150549Z 34005KT 06/00 A3024 RMK A01 T00630003  RH  066%=      5-min Rain = 0
KLA1 150550Z 35005KT 06/00 A3024 RMK A01 T00620003  RH  066%=      5-min Rain = 0
KLA1 150551Z 35006KT 06/00 A3023 RMK A01 T00620003  RH  066%=      5-min Rain = 0
KLA1 150552Z 34005KT 06/00 A3023 RMK A01 T00620003  RH  066%=      5-min Rain = 0
KLA1 150553Z 33007G13KT 06/00 A3023 RMK A01 T00620003  RH  066%=      5-min Rain = 0
KLA1 150554Z 32008KT 06/00 A3023 RMK A01 T00620002  RH  065%=      5-min Rain = 0
KLA1 150555Z 34008KT 06/00 A3023 RMK A01 T00620002  RH  065%=      5-min Rain = 0
KLA1 150556Z 34006KT 06/00 A3023 RMK A01 T00620002  RH  065%=      5-min Rain = 0
KLA1 150557Z 32007KT 06/00 A3023 RMK A01 T00620002  RH  065%=      5-min Rain = 0
KLA1 150558Z 33009KT 06/00 A3023 RMK A01 T00620002  RH  065%=      5-min Rain = 0
KLA1 150559Z 32006KT 06/00 A3023 RMK A01 T00630001  RH  065%=      5-min Rain = 0

Page generated in 0.0852 seconds.